Home > Products > Valid Products > TAF

000
FTUS41 KBOX 290242 AAA
TAFACK
TAF AMD
KACK 290242Z 2903/2924 21015KT P6SM SKC
     FM290600 23012KT 5SM BR SCT150
     FM291200 24010KT P6SM BKN250=



000
FTUS41 KBOX 290242 AAA
TAFACK
TAF AMD
KACK 290242Z 2903/2924 21015KT P6SM SKC
     FM290600 23012KT 5SM BR SCT150
     FM291200 24010KT P6SM BKN250=



000
FTUS41 KBOX 282359 AAA
TAFBOS
TAF AMD
KBOS 282359Z 2900/3006 24010G19KT P6SM VCTS SCT035 BKN060CB
     FM290100 23012KT P6SM BKN060
     FM291100 27009KT P6SM SCT060
     FM291900 23008KT P6SM SCT250
     FM300400 25004KT P6SM FEW250=



000
FTUS41 KBOX 282322
TAFBDL
TAF
KBDL 282322Z 2900/3006 24009KT P6SM BKN040
     FM290300 27007KT P6SM BKN040
     FM291100 28005KT P6SM SCT070
     FM300300 00000KT P6SM FEW250=



000
FTUS41 KBOX 282322
TAFBOS
TAF
KBOS 282322Z 2900/3006 22014G24KT P6SM BKN050
     FM290300 23010KT P6SM BKN060
     FM291100 27009KT P6SM SCT060
     FM291900 23008KT P6SM SCT250
     FM300400 25004KT P6SM FEW250=



000
FTUS41 KBOX 282322
TAFACK
TAF
KACK 282322Z 2900/2924 21012KT 5SM BR SCT002
     FM290200 22012G23KT 3SM BR SCT001
     FM291200 24010KT P6SM BKN250=



000
FTUS41 KBOX 282322
TAFPVD
TAF
KPVD 282322Z 2900/2924 23012KT P6SM BKN045
     FM290200 23008KT P6SM SCT120
     FM290600 24007KT P6SM BKN080
     FM291200 28007KT P6SM SCT060=



000
FTUS41 KBOX 282322
TAFORH
TAF
KORH 282322Z 2900/2924 25012G24KT P6SM BKN050
     FM290600 26009KT P6SM BKN045
     FM291100 28009KT P6SM SCT070=



000
FTUS41 KBOX 282322
TAFBAF
TAF
KBAF 282322Z 2900/2924 26009KT P6SM BKN050
     FM290900 28005KT 3SM BR BKN060
     FM291000 28005KT P6SM BKN070
     FM291100 29005KT P6SM SCT080=



000
FTUS41 KBOX 282322
TAFMHT
TAF
KMHT 282322Z 2900/2924 23006KT P6SM BKN050
     FM290500 25006KT 3SM BR BKN045
     FM290800 27006KT 6SM BR BKN060
     FM291100 29006KT P6SM SCT080=



000
FTUS41 KBOX 282322
TAFBAF
TAF
KBAF 282322Z 2900/2924 26009KT P6SM BKN050
     FM290900 28005KT 3SM BR BKN060
     FM291000 28005KT P6SM BKN070
     FM291100 29005KT P6SM SCT080=



000
FTUS41 KBOX 282322
TAFMHT
TAF
KMHT 282322Z 2900/2924 23006KT P6SM BKN050
     FM290500 25006KT 3SM BR BKN045
     FM290800 27006KT 6SM BR BKN060
     FM291100 29006KT P6SM SCT080=



000
FTUS41 KBOX 282322
TAFPVD
TAF
KPVD 282322Z 2900/2924 23012KT P6SM BKN045
     FM290200 23008KT P6SM SCT120
     FM290600 24007KT P6SM BKN080
     FM291200 28007KT P6SM SCT060=



000
FTUS41 KBOX 282322
TAFBOS
TAF
KBOS 282322Z 2900/3006 22014G24KT P6SM BKN050
     FM290300 23010KT P6SM BKN060
     FM291100 27009KT P6SM SCT060
     FM291900 23008KT P6SM SCT250
     FM300400 25004KT P6SM FEW250=



000
FTUS41 KBOX 282322
TAFACK
TAF
KACK 282322Z 2900/2924 21012KT 5SM BR SCT002
     FM290200 22012G23KT 3SM BR SCT001
     FM291200 24010KT P6SM BKN250=



000
FTUS41 KBOX 282322
TAFORH
TAF
KORH 282322Z 2900/2924 25012G24KT P6SM BKN050
     FM290600 26009KT P6SM BKN045
     FM291100 28009KT P6SM SCT070=



000
FTUS41 KBOX 282322
TAFBDL
TAF
KBDL 282322Z 2900/3006 24009KT P6SM BKN040
     FM290300 27007KT P6SM BKN040
     FM291100 28005KT P6SM SCT070
     FM300300 00000KT P6SM FEW250=



000
FTUS41 KBOX 282201 AAD
TAFACK
TAF AMD
KACK 282201Z 2822/2918 20013KT 4SM BR BKN002
     FM290300 21013G22KT 3SM BR FEW250
     FM290600 22013G22KT 2SM BR FEW250
     FM290900 23010G19KT 3SM BR SCT250
     FM291200 24010KT P6SM BKN250=



000
FTUS41 KBOX 282201 AAF
TAFMHT
TAF AMD
KMHT 282201Z 2822/2918 24008KT P6SM -TSRA FEW018CB BKN050 OVC090
      TEMPO 2822/2823 1SM +TSRA BKN030CB OVC050
     FM282300 20008KT P6SM BKN040
     FM290300 23005KT 3SM BR BKN090
     FM290900 27006KT 6SM BR BKN050
     FM291100 29006KT P6SM SCT080=



000
FTUS41 KBOX 282201 AAF
TAFMHT
TAF AMD
KMHT 282201Z 2822/2918 24008KT P6SM -TSRA FEW018CB BKN050 OVC090
      TEMPO 2822/2823 1SM +TSRA BKN030CB OVC050
     FM282300 20008KT P6SM BKN040
     FM290300 23005KT 3SM BR BKN090
     FM290900 27006KT 6SM BR BKN050
     FM291100 29006KT P6SM SCT080=



000
FTUS41 KBOX 282201 AAD
TAFACK
TAF AMD
KACK 282201Z 2822/2918 20013KT 4SM BR BKN002
     FM290300 21013G22KT 3SM BR FEW250
     FM290600 22013G22KT 2SM BR FEW250
     FM290900 23010G19KT 3SM BR SCT250
     FM291200 24010KT P6SM BKN250=



000
FTUS41 KBOX 282159 AAD
TAFBAF
TAF AMD
KBAF 282159Z 2822/2918 23010KT P6SM SCT060 BKN100
     FM290300 28006KT P6SM BKN040
     FM291000 28005KT P6SM BKN250=



000
FTUS41 KBOX 282159 AAD
TAFBAF
TAF AMD
KBAF 282159Z 2822/2918 23010KT P6SM SCT060 BKN100
     FM290300 28006KT P6SM BKN040
     FM291000 28005KT P6SM BKN250=



000
FTUS41 KBOX 282158 AAF
TAFBDL
TAF AMD
KBDL 282158Z 2822/2924 26008G27KT 3SM TSRA SCT017CB BKN040 BKN050
     FM282230 22010KT P6SM BKN045
     FM290500 28006KT P6SM BKN045
     FM291100 28005KT P6SM SCT250=



000
FTUS41 KBOX 282158 AAF
TAFBDL
TAF AMD
KBDL 282158Z 2822/2924 26008G27KT 3SM TSRA SCT017CB BKN040 BKN050
     FM282230 22010KT P6SM BKN045
     FM290500 28006KT P6SM BKN045
     FM291100 28005KT P6SM SCT250=



000
FTUS41 KBOX 282134 AAE
TAFBDL
TAF AMD
KBDL 282134Z 2822/2924 22016G26KT 3SM TSRA BKN030CB
     FM282230 22010KT P6SM BKN045
     FM290500 28006KT P6SM BKN045
     FM291100 28005KT P6SM SCT250=



000
FTUS41 KBOX 282134 AAE
TAFBDL
TAF AMD
KBDL 282134Z 2822/2924 22016G26KT 3SM TSRA BKN030CB
     FM282230 22010KT P6SM BKN045
     FM290500 28006KT P6SM BKN045
     FM291100 28005KT P6SM SCT250=



000
FTUS41 KBOX 282109 AAC
TAFACK
TAF AMD
KACK 282109Z 2821/2918 20012KT 3SM BR BKN002 OVC009
     FM282200 20016KT 5SM BR SCT250
     FM290000 21015G22KT 1SM BR SCT250
     FM290300 21013G22KT 3SM BR FEW250
     FM290600 22013G22KT 2SM BR FEW250
     FM290900 23010G19KT 3SM BR SCT250
     FM291200 24010KT P6SM BKN250=



000
FTUS41 KBOX 282109 AAD
TAFBDL
TAF AMD
KBDL 282109Z 2821/2924 22016G26KT P6SM VCTS BKN045CB BKN250
     FM282200 22010KT P6SM BKN045
     FM290500 28006KT P6SM BKN045
     FM291100 28005KT P6SM SCT250=



000
FTUS41 KBOX 282109 AAC
TAFBAF
TAF AMD
KBAF 282109Z 2821/2918 24011G22KT P6SM -SHRA FEW045 SCT050 SCT070
     FM282200 22009KT P6SM BKN045
     FM290300 28006KT P6SM BKN040
     FM291000 28005KT P6SM BKN250=



000
FTUS41 KBOX 282109 AAD
TAFBOS
TAF AMD
KBOS 282109Z 2821/2924 18013KT P6SM FEW040 SCT070
     FM290400 23011KT P6SM BKN250
     FM291100 27009KT P6SM SCT150
     FM291900 23008KT P6SM SCT250=



000
FTUS41 KBOX 282109 AAE
TAFMHT
TAF AMD
KMHT 282109Z 2821/2918 19009KT 5SM TSRA BKN035CB BKN110
     FM282200 20008KT P6SM BKN040
     FM290300 23005KT 3SM BR BKN090
     FM290900 27006KT 6SM BR BKN050
     FM291100 29006KT P6SM SCT080=



000
FTUS41 KBOX 282109 AAC
TAFPVD
TAF AMD
KPVD 282109Z 2821/2918 20013G22KT P6SM FEW019 SCT030 SCT130
     FM290300 23009KT P6SM SCT250
     FM291500 27008KT P6SM SCT250=



000
FTUS41 KBOX 282109 AAC
TAFBAF
TAF AMD
KBAF 282109Z 2821/2918 24011G22KT P6SM -SHRA FEW045 SCT050 SCT070
     FM282200 22009KT P6SM BKN045
     FM290300 28006KT P6SM BKN040
     FM291000 28005KT P6SM BKN250=



000
FTUS41 KBOX 282109 AAE
TAFMHT
TAF AMD
KMHT 282109Z 2821/2918 19009KT 5SM TSRA BKN035CB BKN110
     FM282200 20008KT P6SM BKN040
     FM290300 23005KT 3SM BR BKN090
     FM290900 27006KT 6SM BR BKN050
     FM291100 29006KT P6SM SCT080=



000
FTUS41 KBOX 282109 AAD
TAFORH
TAF AMD
KORH 282109Z 2821/2918 25017G29KT P6SM -TSRA BKN030CB BKN110
     FM282130 23009KT P6SM BKN045
     FM290600 26009KT P6SM BKN040
     FM291100 28009KT P6SM SCT070=



000
FTUS41 KBOX 282109 AAD
TAFBDL
TAF AMD
KBDL 282109Z 2821/2924 22016G26KT P6SM VCTS BKN045CB BKN250
     FM282200 22010KT P6SM BKN045
     FM290500 28006KT P6SM BKN045
     FM291100 28005KT P6SM SCT250=



000
FTUS41 KBOX 282109 AAD
TAFBOS
TAF AMD
KBOS 282109Z 2821/2924 18013KT P6SM FEW040 SCT070
     FM290400 23011KT P6SM BKN250
     FM291100 27009KT P6SM SCT150
     FM291900 23008KT P6SM SCT250=



000
FTUS41 KBOX 282109 AAC
TAFACK
TAF AMD
KACK 282109Z 2821/2918 20012KT 3SM BR BKN002 OVC009
     FM282200 20016KT 5SM BR SCT250
     FM290000 21015G22KT 1SM BR SCT250
     FM290300 21013G22KT 3SM BR FEW250
     FM290600 22013G22KT 2SM BR FEW250
     FM290900 23010G19KT 3SM BR SCT250
     FM291200 24010KT P6SM BKN250=



000
FTUS41 KBOX 282109 AAC
TAFPVD
TAF AMD
KPVD 282109Z 2821/2918 20013G22KT P6SM FEW019 SCT030 SCT130
     FM290300 23009KT P6SM SCT250
     FM291500 27008KT P6SM SCT250=



000
FTUS41 KBOX 282109 AAD
TAFORH
TAF AMD
KORH 282109Z 2821/2918 25017G29KT P6SM -TSRA BKN030CB BKN110
     FM282130 23009KT P6SM BKN045
     FM290600 26009KT P6SM BKN040
     FM291100 28009KT P6SM SCT070=



000
FTUS41 KBOX 282036 AAC
TAFBDL
TAF AMD
KBDL 282036Z 2821/2924 18012KT P6SM VCTS FEW035 BKN045CB BKN080
     FM282200 22010KT P6SM BKN045
     FM290500 28006KT P6SM BKN045
     FM291100 28005KT P6SM SCT250=



000
FTUS41 KBOX 282035 AAC
TAFORH
TAF AMD
KORH 282035Z 2821/2918 22010KT 5SM TSRA BKN030CB
     FM282130 23009KT P6SM BKN045
     FM290600 26009KT P6SM BKN040
     FM291100 28009KT P6SM SCT070=



000
FTUS41 KBOX 282035 AAC
TAFORH
TAF AMD
KORH 282035Z 2821/2918 22010KT 5SM TSRA BKN030CB
     FM282130 23009KT P6SM BKN045
     FM290600 26009KT P6SM BKN040
     FM291100 28009KT P6SM SCT070=



000
FTUS41 KBOX 281917 AAD
TAFMHT
TAF AMD
KMHT 281917Z 2819/2918 17012G20KT P6SM BKN050
     FM282100 19006KT P6SM -SHRA OVC040
     FM282300 20006KT P6SM BKN040
     FM290300 23005KT 3SM BR BKN090
     FM290900 27006KT 6SM BR BKN050
     FM291100 29006KT P6SM SCT080=



000
FTUS41 KBOX 281917 AAD
TAFMHT
TAF AMD
KMHT 281917Z 2819/2918 17012G20KT P6SM BKN050
     FM282100 19006KT P6SM -SHRA OVC040
     FM282300 20006KT P6SM BKN040
     FM290300 23005KT 3SM BR BKN090
     FM290900 27006KT 6SM BR BKN050
     FM291100 29006KT P6SM SCT080=



000
FTUS41 KBOX 281916 AAB
TAFBDL
TAF AMD
KBDL 281916Z 2819/2924 16012KT P6SM VCTS FEW035 BKN045CB BKN080
     FM282200 22010KT P6SM BKN045
     FM290500 28006KT P6SM BKN045
     FM291100 28005KT P6SM SCT250=



000
FTUS41 KBOX 281916 AAB
TAFBDL
TAF AMD
KBDL 281916Z 2819/2924 16012KT P6SM VCTS FEW035 BKN045CB BKN080
     FM282200 22010KT P6SM BKN045
     FM290500 28006KT P6SM BKN045
     FM291100 28005KT P6SM SCT250=



000
FTUS41 KBOX 281747 RRA
TAFBOS
TAF
KBOS 281747Z 2818/2924 19014G22KT P6SM SCT035 BKN250
     FM290400 23011KT P6SM BKN250
     FM291100 27009KT P6SM SCT150
     FM291900 23008KT P6SM SCT250=



000
FTUS41 KBOX 281747 RRA
TAFMHT
TAF
KMHT 281747Z 2818/2918 17012G20KT P6SM BKN040
      TEMPO 2818/2821 BKN029 OVC040
     FM282100 19006KT P6SM -SHRA OVC040
     FM282300 20006KT P6SM BKN040
     FM290300 23005KT 3SM BR BKN090
     FM290900 27006KT 6SM BR BKN050
     FM291100 29006KT P6SM SCT080=



000
FTUS41 KBOX 281747 RRA
TAFPVD
TAF
KPVD 281747Z 2818/2918 20012G20KT P6SM BKN035 OVC250
      TEMPO 2818/2821 BKN029
     FM290300 23009KT P6SM SCT250
     FM291500 27008KT P6SM SCT250=



000
FTUS41 KBOX 281747 RRA
TAFBOS
TAF
KBOS 281747Z 2818/2924 19014G22KT P6SM SCT035 BKN250
     FM290400 23011KT P6SM BKN250
     FM291100 27009KT P6SM SCT150
     FM291900 23008KT P6SM SCT250=



000
FTUS41 KBOX 281747 RRA
TAFMHT
TAF
KMHT 281747Z 2818/2918 17012G20KT P6SM BKN040
      TEMPO 2818/2821 BKN029 OVC040
     FM282100 19006KT P6SM -SHRA OVC040
     FM282300 20006KT P6SM BKN040
     FM290300 23005KT 3SM BR BKN090
     FM290900 27006KT 6SM BR BKN050
     FM291100 29006KT P6SM SCT080=



000
FTUS41 KBOX 281747 RRA
TAFORH
TAF
KORH 281747Z 2818/2918 21011KT P6SM BKN025 OVC045
     FM282000 22010KT P6SM -SHRA BKN040
     FM282300 23009KT P6SM BKN045
     FM290600 26009KT P6SM BKN040
     FM291100 28009KT P6SM SCT070=



000
FTUS41 KBOX 281747 RRA
TAFORH
TAF
KORH 281747Z 2818/2918 21011KT P6SM BKN025 OVC045
     FM282000 22010KT P6SM -SHRA BKN040
     FM282300 23009KT P6SM BKN045
     FM290600 26009KT P6SM BKN040
     FM291100 28009KT P6SM SCT070=



000
FTUS41 KBOX 281747 RRA
TAFBDL
TAF
KBDL 281747Z 2818/2924 22010KT P6SM BKN040
     FM281900 20010KT P6SM -SHRA BKN045
     FM282200 22010KT P6SM BKN045
     FM290500 28006KT P6SM BKN045
     FM291100 28005KT P6SM SCT250=



000
FTUS41 KBOX 281747 RRA
TAFBAF
TAF
KBAF 281747Z 2818/2918 20008KT P6SM BKN045
     FM281900 21008KT P6SM -SHRA BKN045
     FM282200 22009KT P6SM BKN045
     FM290300 28006KT P6SM BKN040
     FM291000 28005KT P6SM BKN250=



000
FTUS41 KBOX 281747 RRA
TAFBDL
TAF
KBDL 281747Z 2818/2924 22010KT P6SM BKN040
     FM281900 20010KT P6SM -SHRA BKN045
     FM282200 22010KT P6SM BKN045
     FM290500 28006KT P6SM BKN045
     FM291100 28005KT P6SM SCT250=



000
FTUS41 KBOX 281747 RRA
TAFPVD
TAF
KPVD 281747Z 2818/2918 20012G20KT P6SM BKN035 OVC250
      TEMPO 2818/2821 BKN029
     FM290300 23009KT P6SM SCT250
     FM291500 27008KT P6SM SCT250=



000
FTUS41 KBOX 281747 RRA
TAFBAF
TAF
KBAF 281747Z 2818/2918 20008KT P6SM BKN045
     FM281900 21008KT P6SM -SHRA BKN045
     FM282200 22009KT P6SM BKN045
     FM290300 28006KT P6SM BKN040
     FM291000 28005KT P6SM BKN250=



000
FTUS41 KBOX 281747 RRA
TAFACK
TAF
KACK 281747Z 2818/2918 17017KT P6SM SCT020 SCT250
      TEMPO 2818/2822 BKN020
     FM282200 20016KT 5SM BR SCT250
     FM290000 21015G22KT 1SM BR SCT250
     FM290300 21013G22KT 3SM BR FEW250
     FM290600 22013G22KT 2SM BR FEW250
     FM290900 23010G19KT 3SM BR SCT250
     FM291200 24010KT P6SM BKN250=



000
FTUS41 KBOX 281747 RRA
TAFACK
TAF
KACK 281747Z 2818/2918 17017KT P6SM SCT020 SCT250
      TEMPO 2818/2822 BKN020
     FM282200 20016KT 5SM BR SCT250
     FM290000 21015G22KT 1SM BR SCT250
     FM290300 21013G22KT 3SM BR FEW250
     FM290600 22013G22KT 2SM BR FEW250
     FM290900 23010G19KT 3SM BR SCT250
     FM291200 24010KT P6SM BKN250=



000
FTUS41 KBOX 281500 AAC
TAFMHT
TAF AMD
KMHT 281500Z 2815/2912 15009KT P6SM SCT009 BKN030 BKN045
     FM282100 21007KT 4SM -SHRA VCTS BKN040CB
     FM290000 23006KT P6SM BKN050
     FM290900 27007KT P6SM SCT050=



000
FTUS41 KBOX 281500 AAC
TAFMHT
TAF AMD
KMHT 281500Z 2815/2912 15009KT P6SM SCT009 BKN030 BKN045
     FM282100 21007KT 4SM -SHRA VCTS BKN040CB
     FM290000 23006KT P6SM BKN050
     FM290900 27007KT P6SM SCT050=



000
FTUS41 KBOX 281458 AAC
TAFBOS
TAF AMD
KBOS 281458Z 2815/2918 20015G23KT P6SM FEW025 SCT035 BKN070
     FM282000 19013KT P6SM VCTS BKN050CB
     FM290000 23011KT P6SM BKN050
     FM290600 25010KT P6SM SCT050
     FM291200 26008KT P6SM SCT250=



000
FTUS41 KBOX 281458 AAC
TAFBOS
TAF AMD
KBOS 281458Z 2815/2918 20015G23KT P6SM FEW025 SCT035 BKN070
     FM282000 19013KT P6SM VCTS BKN050CB
     FM290000 23011KT P6SM BKN050
     FM290600 25010KT P6SM SCT050
     FM291200 26008KT P6SM SCT250=



000
FTUS41 KBOX 281457 AAB
TAFACK
TAF AMD
KACK 281457Z 2815/2912 17016G26KT P6SM SCT025 SCT070 OVC100
      TEMPO 2816/2820 BKN025 OVC100
     FM282100 21018KT 5SM BR SCT008
     FM290000 21019KT 1/4SM FG SCT001
     FM290600 24016G23KT P6SM SCT250=



000
FTUS41 KBOX 281457 AAB
TAFACK
TAF AMD
KACK 281457Z 2815/2912 17016G26KT P6SM SCT025 SCT070 OVC100
      TEMPO 2816/2820 BKN025 OVC100
     FM282100 21018KT 5SM BR SCT008
     FM290000 21019KT 1/4SM FG SCT001
     FM290600 24016G23KT P6SM SCT250=



000
FTUS41 KBOX 281419 AAB
TAFPVD
TAF AMD
KPVD 281419Z 2814/2912 19013G22KT P6SM FEW018 FEW120 BKN140
     FM282000 21012G19KT P6SM BKN025
     FM282200 23012KT P6SM SCT035
     FM290600 26008KT P6SM SCT050=



000
FTUS41 KBOX 281419 AAB
TAFPVD
TAF AMD
KPVD 281419Z 2814/2912 19013G22KT P6SM FEW018 FEW120 BKN140
     FM282000 21012G19KT P6SM BKN025
     FM282200 23012KT P6SM SCT035
     FM290600 26008KT P6SM SCT050=



000
FTUS41 KBOX 281419 AAB
TAFMHT
TAF AMD
KMHT 281419Z 2814/2912 12009KT 3SM -SHRA BR SCT009 BKN070 OVC080
     FM282100 21007KT 4SM -SHRA VCTS BKN040CB
     FM290000 23006KT P6SM BKN050
     FM290900 27007KT P6SM SCT050=



000
FTUS41 KBOX 281418 AAB
TAFBAF
TAF AMD
KBAF 281418Z 2814/2912 17009KT P6SM FEW013 BKN022 OVC035
     FM281800 21010KT P6SM BKN050
     FM282000 23009KT P6SM VCTS BKN040CB
     FM290000 27008KT P6SM BKN050
     FM290700 27006KT P6SM SCT050=



000
FTUS41 KBOX 281418 AAB
TAFBAF
TAF AMD
KBAF 281418Z 2814/2912 17009KT P6SM FEW013 BKN022 OVC035
     FM281800 21010KT P6SM BKN050
     FM282000 23009KT P6SM VCTS BKN040CB
     FM290000 27008KT P6SM BKN050
     FM290700 27006KT P6SM SCT050=



000
FTUS41 KBOX 281418 AAB
TAFORH
TAF AMD
KORH 281418Z 2814/2912 20012KT P6SM SCT009 BKN014 OVC018
     FM281500 21012KT P6SM SCT015 BKN050
     FM282000 22011KT P6SM VCTS BKN050CB
     FM290000 25010KT P6SM BKN050
     FM290800 27008KT P6SM SCT050=



000
FTUS41 KBOX 281418 AAB
TAFORH
TAF AMD
KORH 281418Z 2814/2912 20012KT P6SM SCT009 BKN014 OVC018
     FM281500 21012KT P6SM SCT015 BKN050
     FM282000 22011KT P6SM VCTS BKN050CB
     FM290000 25010KT P6SM BKN050
     FM290800 27008KT P6SM SCT050=



000
FTUS41 KBOX 281412 AAB
TAFBOS
TAF AMD
KBOS 281412Z 2814/2918 00000KT 6SM BR FEW005 SCT014 OVC022
     FM281430 14009KT P6SM SCT050 BKN100
     FM282000 19013KT P6SM VCTS BKN050CB
     FM290000 23011KT P6SM BKN050
     FM290600 25010KT P6SM SCT050
     FM291200 26008KT P6SM SCT250=



000
FTUS41 KBOX 281412 AAB
TAFBOS
TAF AMD
KBOS 281412Z 2814/2918 00000KT 6SM BR FEW005 SCT014 OVC022
     FM281430 14009KT P6SM SCT050 BKN100
     FM282000 19013KT P6SM VCTS BKN050CB
     FM290000 23011KT P6SM BKN050
     FM290600 25010KT P6SM SCT050
     FM291200 26008KT P6SM SCT250=



000
FTUS41 KBOX 281306 AAA
TAFACK
TAF AMD
KACK 281306Z 2813/2912 18015KT P6SM -RA BKN013 BKN022 OVC028
     FM281500 18015KT 5SM BR BKN015
     FM282100 21018KT 5SM BR SCT008
     FM290000 21019KT 1/4SM FG SCT001
     FM290600 24016G23KT P6SM SCT250=



000
FTUS41 KBOX 281306 AAA
TAFACK
TAF AMD
KACK 281306Z 2813/2912 18015KT P6SM -RA BKN013 BKN022 OVC028
     FM281500 18015KT 5SM BR BKN015
     FM282100 21018KT 5SM BR SCT008
     FM290000 21019KT 1/4SM FG SCT001
     FM290600 24016G23KT P6SM SCT250=



000
FTUS41 KBOX 281304 AAA
TAFPVD
TAF AMD
KPVD 281304Z 2813/2912 19013G22KT P6SM FEW004 BKN013 BKN250
     FM282000 21012G19KT P6SM BKN025
     FM282200 23012KT P6SM SCT035
     FM290600 26008KT P6SM SCT050=



000
FTUS41 KBOX 281304 AAA
TAFMHT
TAF AMD
KMHT 281304Z 2813/2912 12006KT 2SM -TSRA BR FEW006CB BKN012 OVC020
     FM281330 18005KT P6SM OVC010
     FM282100 21007KT 4SM -SHRA VCTS BKN040CB
     FM290000 23006KT P6SM BKN050
     FM290900 27007KT P6SM SCT050=



000
FTUS41 KBOX 281304 AAA
TAFMHT
TAF AMD
KMHT 281304Z 2813/2912 12006KT 2SM -TSRA BR FEW006CB BKN012 OVC020
     FM281330 18005KT P6SM OVC010
     FM282100 21007KT 4SM -SHRA VCTS BKN040CB
     FM290000 23006KT P6SM BKN050
     FM290900 27007KT P6SM SCT050=



000
FTUS41 KBOX 281304 AAA
TAFPVD
TAF AMD
KPVD 281304Z 2813/2912 19013G22KT P6SM FEW004 BKN013 BKN250
     FM282000 21012G19KT P6SM BKN025
     FM282200 23012KT P6SM SCT035
     FM290600 26008KT P6SM SCT050=



000
FTUS41 KBOX 281302 AAA
TAFBAF
TAF AMD
KBAF 281302Z 2813/2912 00000KT 4SM BR OVC002
     FM281400 18010KT P6SM BKN015
     FM281800 21010KT P6SM BKN050
     FM282000 23009KT P6SM VCTS BKN040CB
     FM290000 27008KT P6SM BKN050
     FM290700 27006KT P6SM SCT050=



000
FTUS41 KBOX 281302 AAA
TAFBAF
TAF AMD
KBAF 281302Z 2813/2912 00000KT 4SM BR OVC002
     FM281400 18010KT P6SM BKN015
     FM281800 21010KT P6SM BKN050
     FM282000 23009KT P6SM VCTS BKN040CB
     FM290000 27008KT P6SM BKN050
     FM290700 27006KT P6SM SCT050=



000
FTUS41 KBOX 281301 AAA
TAFBDL
TAF AMD
KBDL 281301Z 2813/2918 20007KT P6SM FEW009 BKN015 BKN025
     FM281800 21010KT P6SM BKN050
     FM282000 23009KT P6SM VCTS BKN040CB
     FM290000 27008KT P6SM BKN050
     FM290700 27006KT P6SM SCT050=



000
FTUS41 KBOX 281301 AAA
TAFBDL
TAF AMD
KBDL 281301Z 2813/2918 20007KT P6SM FEW009 BKN015 BKN025
     FM281800 21010KT P6SM BKN050
     FM282000 23009KT P6SM VCTS BKN040CB
     FM290000 27008KT P6SM BKN050
     FM290700 27006KT P6SM SCT050=



000
FTUS41 KBOX 281300 AAA
TAFBOS
TAF AMD
KBOS 281300Z 2813/2918 07008KT 3SM TSRA BR SCT005 BKN010CB OVC014
     FM281400 16011KT 5SM BR BKN012
     FM282000 19013KT P6SM VCTS BKN050CB
     FM290000 23011KT P6SM BKN050
     FM290600 25010KT P6SM SCT050
     FM291200 26008KT P6SM SCT250=



000
FTUS41 KBOX 281219 AAA
TAFORH
TAF AMD
KORH 281219Z 2812/2912 16009KT 5SM -SHRA BR BKN004 OVC100
     FM281400 18010KT P6SM BKN040
     FM282000 22011KT P6SM VCTS BKN050CB
     FM290000 25010KT P6SM BKN050
     FM290800 27008KT P6SM SCT050=



000
FTUS41 KBOX 281219 AAA
TAFORH
TAF AMD
KORH 281219Z 2812/2912 16009KT 5SM -SHRA BR BKN004 OVC100
     FM281400 18010KT P6SM BKN040
     FM282000 22011KT P6SM VCTS BKN050CB
     FM290000 25010KT P6SM BKN050
     FM290800 27008KT P6SM SCT050=



000
FTUS41 KBOX 281127
TAFBOS
TAF
KBOS 281127Z 2812/2918 09008KT 4SM -SHRA BR OVC008
      TEMPO 2812/2813 3SM -TSRA BR OVC008CB
     FM281400 16011KT 5SM BR BKN012
     FM282000 19013KT P6SM VCTS BKN050CB
     FM290000 23011KT P6SM BKN050
     FM290600 25010KT P6SM SCT050
     FM291200 26008KT P6SM SCT250=



000
FTUS41 KBOX 281127
TAFPVD
TAF
KPVD 281127Z 2812/2912 15008KT 4SM -SHRA BR OVC005
     FM281400 19011G20KT P6SM OVC015
     FM282000 21012G19KT P6SM BKN025
     FM282200 23012KT P6SM SCT035
     FM290600 26008KT P6SM SCT050=



000
FTUS41 KBOX 281127
TAFMHT
TAF
KMHT 281127Z 2812/2912 14004KT 2SM SHRA BR OVC004
     FM281400 18005KT P6SM OVC040
     FM282100 21007KT 4SM -SHRA VCTS BKN040CB
     FM290000 23006KT P6SM BKN050
     FM290900 27007KT P6SM SCT050=



000
FTUS41 KBOX 281127
TAFORH
TAF
KORH 281127Z 2812/2912 16007KT 1/4SM FG OVC002
     FM281500 18010KT P6SM BKN040
     FM282000 22011KT P6SM VCTS BKN050CB
     FM290000 25010KT P6SM BKN050
     FM290800 27008KT P6SM SCT050=



000
FTUS41 KBOX 281127
TAFBDL
TAF
KBDL 281127Z 2812/2918 16005KT 5SM BR BKN007
     FM281400 18010KT P6SM BKN015
     FM281800 21010KT P6SM BKN050
     FM282000 23009KT P6SM VCTS BKN040CB
     FM290000 27008KT P6SM BKN050
     FM290700 27006KT P6SM SCT050=



000
FTUS41 KBOX 281127
TAFBAF
TAF
KBAF 281127Z 2812/2912 15004KT 5SM BR OVC005
     FM281400 18010KT P6SM BKN015
     FM281800 21010KT P6SM BKN050
     FM282000 23009KT P6SM VCTS BKN040CB
     FM290000 27008KT P6SM BKN050
     FM290700 27006KT P6SM SCT050=



000
FTUS41 KBOX 281127
TAFACK
TAF
KACK 281127Z 2812/2912 16012KT 5SM -SHRA BR OVC004
     FM281400 18015KT 5SM BR OVC008
     FM282100 21018KT 5SM BR SCT008
     FM290000 21019KT 1/4SM FG SCT001
     FM290600 24016G23KT P6SM SCT250=



000
FTUS41 KBOX 281127
TAFMHT
TAF
KMHT 281127Z 2812/2912 14004KT 2SM SHRA BR OVC004
     FM281400 18005KT P6SM OVC040
     FM282100 21007KT 4SM -SHRA VCTS BKN040CB
     FM290000 23006KT P6SM BKN050
     FM290900 27007KT P6SM SCT050=



000
FTUS41 KBOX 281127
TAFPVD
TAF
KPVD 281127Z 2812/2912 15008KT 4SM -SHRA BR OVC005
     FM281400 19011G20KT P6SM OVC015
     FM282000 21012G19KT P6SM BKN025
     FM282200 23012KT P6SM SCT035
     FM290600 26008KT P6SM SCT050=



000
FTUS41 KBOX 281127
TAFBOS
TAF
KBOS 281127Z 2812/2918 09008KT 4SM -SHRA BR OVC008
      TEMPO 2812/2813 3SM -TSRA BR OVC008CB
     FM281400 16011KT 5SM BR BKN012
     FM282000 19013KT P6SM VCTS BKN050CB
     FM290000 23011KT P6SM BKN050
     FM290600 25010KT P6SM SCT050
     FM291200 26008KT P6SM SCT250=



000
FTUS41 KBOX 281127
TAFBAF
TAF
KBAF 281127Z 2812/2912 15004KT 5SM BR OVC005
     FM281400 18010KT P6SM BKN015
     FM281800 21010KT P6SM BKN050
     FM282000 23009KT P6SM VCTS BKN040CB
     FM290000 27008KT P6SM BKN050
     FM290700 27006KT P6SM SCT050=



000
FTUS41 KBOX 281127
TAFORH
TAF
KORH 281127Z 2812/2912 16007KT 1/4SM FG OVC002
     FM281500 18010KT P6SM BKN040
     FM282000 22011KT P6SM VCTS BKN050CB
     FM290000 25010KT P6SM BKN050
     FM290800 27008KT P6SM SCT050=



000
FTUS41 KBOX 281127
TAFBDL
TAF
KBDL 281127Z 2812/2918 16005KT 5SM BR BKN007
     FM281400 18010KT P6SM BKN015
     FM281800 21010KT P6SM BKN050
     FM282000 23009KT P6SM VCTS BKN040CB
     FM290000 27008KT P6SM BKN050
     FM290700 27006KT P6SM SCT050=



000
FTUS41 KBOX 281127
TAFACK
TAF
KACK 281127Z 2812/2912 16012KT 5SM -SHRA BR OVC004
     FM281400 18015KT 5SM BR OVC008
     FM282100 21018KT 5SM BR SCT008
     FM290000 21019KT 1/4SM FG SCT001
     FM290600 24016G23KT P6SM SCT250=



000
FTUS41 KBOX 280910 AAB
TAFBOS
TAF AMD
KBOS 280910Z 2809/2912 15006KT 4SM BR OVC004
     FM281100 16007KT 2SM -SHRA BR OVC008
     FM281500 17011KT 4SM -SHRA BR OVC012
     FM281800 19013KT P6SM BKN035
     FM290000 23011KT P6SM BKN050
     FM290600 25010KT P6SM SCT050=



000
FTUS41 KBOX 280910 AAB
TAFBOS
TAF AMD
KBOS 280910Z 2809/2912 15006KT 4SM BR OVC004
     FM281100 16007KT 2SM -SHRA BR OVC008
     FM281500 17011KT 4SM -SHRA BR OVC012
     FM281800 19013KT P6SM BKN035
     FM290000 23011KT P6SM BKN050
     FM290600 25010KT P6SM SCT050=



000
FTUS41 KBOX 280810 AAA
TAFACK
TAF AMD
KACK 280810Z 2808/2906 18007KT 1/2SM FG OVC002
     FM281100 18008KT 1SM -SHRA BR VCTS OVC003CB
     FM281300 18015KT 3SM -SHRA BR OVC005
     FM281700 19017KT 5SM BR BKN008
     FM282100 21018KT 2SM BR SCT008
     FM290000 21019KT 1/4SM FG BKN004=



000
FTUS41 KBOX 280810 AAA
TAFACK
TAF AMD
KACK 280810Z 2808/2906 18007KT 1/2SM FG OVC002
     FM281100 18008KT 1SM -SHRA BR VCTS OVC003CB
     FM281300 18015KT 3SM -SHRA BR OVC005
     FM281700 19017KT 5SM BR BKN008
     FM282100 21018KT 2SM BR SCT008
     FM290000 21019KT 1/4SM FG BKN004=



000
FTUS41 KBOX 280807 AAA
TAFPVD
TAF AMD
KPVD 280807Z 2808/2906 18006KT 5SM BR OVC006
     FM281000 17006KT 3SM TSRA BR BKN008 OVC025CB
     FM281130 18007KT 5SM -SHRA BR OVC006
     FM281500 20013G20KT P6SM BKN025
     FM282200 23012KT P6SM SCT035
     FM290000 24011KT P6SM SCT250=



000
FTUS41 KBOX 280807 AAA
TAFPVD
TAF AMD
KPVD 280807Z 2808/2906 18006KT 5SM BR OVC006
     FM281000 17006KT 3SM TSRA BR BKN008 OVC025CB
     FM281130 18007KT 5SM -SHRA BR OVC006
     FM281500 20013G20KT P6SM BKN025
     FM282200 23012KT P6SM SCT035
     FM290000 24011KT P6SM SCT250=



000
FTUS41 KBOX 280801 AAA
TAFMHT
TAF AMD
KMHT 280801Z 2808/2906 VRB03KT 1SM BR SCT004 BKN025
     FM281100 13005KT 4SM -SHRA BR OVC015
     FM281700 20007KT P6SM OVC025
     FM282200 22007KT P6SM BKN090
     FM290300 25007KT 6SM BR BKN025=



000
FTUS41 KBOX 280801 AAA
TAFMHT
TAF AMD
KMHT 280801Z 2808/2906 VRB03KT 1SM BR SCT004 BKN025
     FM281100 13005KT 4SM -SHRA BR OVC015
     FM281700 20007KT P6SM OVC025
     FM282200 22007KT P6SM BKN090
     FM290300 25007KT 6SM BR BKN025=



000
FTUS41 KBOX 280759 AAA
TAFBAF
TAF AMD
KBAF 280759Z 2808/2906 VRB03KT P6SM OVC008
     FM281000 04004KT 4SM -SHRA BR OVC012
     FM281500 21009KT P6SM BKN025
     FM282100 24009KT P6SM BKN050
     FM290000 28008KT P6SM BKN025
     FM290300 28007KT P6SM BKN015=



000
FTUS41 KBOX 280759 AAA
TAFBAF
TAF AMD
KBAF 280759Z 2808/2906 VRB03KT P6SM OVC008
     FM281000 04004KT 4SM -SHRA BR OVC012
     FM281500 21009KT P6SM BKN025
     FM282100 24009KT P6SM BKN050
     FM290000 28008KT P6SM BKN025
     FM290300 28007KT P6SM BKN015=



000
FTUS41 KBOX 280757 AAA
TAFBDL
TAF AMD
KBDL 280757Z 2808/2912 VRB03KT P6SM BKN008 OVC015
     FM281000 16005KT 5SM -SHRA BR OVC012
     FM281500 23009KT P6SM BKN025
     FM282100 24009KT P6SM BKN050
     FM290300 27007KT P6SM BKN025
     FM290700 27006KT P6SM SCT050=



000
FTUS41 KBOX 280757 AAA
TAFBDL
TAF AMD
KBDL 280757Z 2808/2912 VRB03KT P6SM BKN008 OVC015
     FM281000 16005KT 5SM -SHRA BR OVC012
     FM281500 23009KT P6SM BKN025
     FM282100 24009KT P6SM BKN050
     FM290300 27007KT P6SM BKN025
     FM290700 27006KT P6SM SCT050=



000
FTUS41 KBOX 280736 AAA
TAFBOS
TAF AMD
KBOS 280736Z 2808/2912 18006KT 4SM BR OVC004
     FM281000 16007KT 2SM -SHRA BR OVC008
     FM281500 17011KT 4SM -SHRA BR OVC012
     FM281800 19013KT P6SM BKN035
     FM290000 23011KT P6SM BKN050
     FM290600 25010KT P6SM SCT050=



000
FTUS41 KBOX 280736 AAA
TAFBOS
TAF AMD
KBOS 280736Z 2808/2912 18006KT 4SM BR OVC004
     FM281000 16007KT 2SM -SHRA BR OVC008
     FM281500 17011KT 4SM -SHRA BR OVC012
     FM281800 19013KT P6SM BKN035
     FM290000 23011KT P6SM BKN050
     FM290600 25010KT P6SM SCT050=



000
FTUS41 KBOX 280735 AAA
TAFORH
TAF AMD
KORH 280735Z 2808/2906 20005KT 1/4SM FG OVC002
     FM280900 20006KT 1SM -SHRA BR OVC004
     FM281200 16007KT 2SM -SHRA BR OVC008
     FM281600 21011KT P6SM BKN025
     FM281800 22011KT P6SM BKN050
     FM290300 26010KT P6SM BKN015=



000
FTUS41 KBOX 280735 AAA
TAFORH
TAF AMD
KORH 280735Z 2808/2906 20005KT 1/4SM FG OVC002
     FM280900 20006KT 1SM -SHRA BR OVC004
     FM281200 16007KT 2SM -SHRA BR OVC008
     FM281600 21011KT P6SM BKN025
     FM281800 22011KT P6SM BKN050
     FM290300 26010KT P6SM BKN015=



000
FTUS41 KBOX 280525
TAFMHT
TAF
KMHT 280525Z 2806/2906 18005KT 2SM BR BKN035
     FM281000 VRB03KT 2SM -SHRA BR VCTS OVC015CB
     FM281300 13005KT 3SM -SHRA BR OVC008
     FM281700 20007KT P6SM OVC025
     FM282200 22007KT P6SM BKN090
     FM290300 25007KT 6SM BR BKN025=



000
FTUS41 KBOX 280525
TAFORH
TAF
KORH 280525Z 2806/2906 20004KT P6SM SCT015
     FM280800 19005KT 3SM -SHRA BR VCTS BKN015CB
     FM281200 16007KT 2SM -SHRA BR OVC008
     FM281600 21011KT P6SM BKN025
     FM281800 22011KT P6SM BKN050
     FM290300 26010KT P6SM BKN015=



000
FTUS41 KBOX 280525
TAFACK
TAF
KACK 280525Z 2806/2906 18007KT 1/4SM FG OVC002
     FM280900 18013KT 1SM -SHRA BR VCTS OVC003CB
     FM281400 18015KT 3SM -SHRA BR OVC005
     FM281700 19017KT 5SM BR BKN008
     FM282100 21018KT 2SM BR SCT008
     FM290000 21019KT 1/4SM FG BKN004=



000
FTUS41 KBOX 280525
TAFPVD
TAF
KPVD 280525Z 2806/2906 18005KT 4SM BR OVC004
     FM280800 18006KT 3SM -SHRA BR VCTS BKN008 OVC015CB
     FM281300 17009KT 3SM -SHRA BR BKN012
     FM281800 20013G20KT P6SM BKN025
     FM282200 23012KT P6SM SCT035
     FM290000 24011KT P6SM SCT250=



000
FTUS41 KBOX 280525
TAFBOS
TAF
KBOS 280525Z 2806/2912 19006KT 3SM BR SCT005
     FM280700 18006KT 3/4SM BR BKN005
     FM280830 16007KT 2SM -SHRA BR VCTS OVC008CB
     FM281500 17011KT 4SM -SHRA BR OVC012
     FM281800 19013KT P6SM BKN035
     FM290000 23011KT P6SM BKN050
     FM290600 25010KT P6SM SCT050=



000
FTUS41 KBOX 280525
TAFBDL
TAF
KBDL 280525Z 2806/2912 VRB03KT P6SM BKN120
     FM280630 16004KT 5SM -SHRA BR VCTS BKN025 BKN050CB
     FM281200 16005KT 3SM -SHRA BR OVC008
     FM281500 23009KT P6SM BKN025
     FM282100 24009KT P6SM BKN050
     FM290300 27007KT P6SM BKN025
     FM290700 27006KT P6SM SCT050=



000
FTUS41 KBOX 280525
TAFBAF
TAF
KBAF 280525Z 2806/2906 VRB03KT P6SM SCT015 BKN120
     FM280700 VRB03KT 4SM -SHRA BR VCTS BKN015 BKN050CB
     FM281500 21009KT P6SM BKN025
     FM282100 24009KT P6SM BKN050
     FM290000 28008KT P6SM BKN025
     FM290300 28007KT P6SM BKN015=



000
FTUS41 KBOX 280525
TAFACK
TAF
KACK 280525Z 2806/2906 18007KT 1/4SM FG OVC002
     FM280900 18013KT 1SM -SHRA BR VCTS OVC003CB
     FM281400 18015KT 3SM -SHRA BR OVC005
     FM281700 19017KT 5SM BR BKN008
     FM282100 21018KT 2SM BR SCT008
     FM290000 21019KT 1/4SM FG BKN004=



000
FTUS41 KBOX 280525
TAFPVD
TAF
KPVD 280525Z 2806/2906 18005KT 4SM BR OVC004
     FM280800 18006KT 3SM -SHRA BR VCTS BKN008 OVC015CB
     FM281300 17009KT 3SM -SHRA BR BKN012
     FM281800 20013G20KT P6SM BKN025
     FM282200 23012KT P6SM SCT035
     FM290000 24011KT P6SM SCT250=



000
FTUS41 KBOX 280525
TAFORH
TAF
KORH 280525Z 2806/2906 20004KT P6SM SCT015
     FM280800 19005KT 3SM -SHRA BR VCTS BKN015CB
     FM281200 16007KT 2SM -SHRA BR OVC008
     FM281600 21011KT P6SM BKN025
     FM281800 22011KT P6SM BKN050
     FM290300 26010KT P6SM BKN015=



000
FTUS41 KBOX 280525
TAFMHT
TAF
KMHT 280525Z 2806/2906 18005KT 2SM BR BKN035
     FM281000 VRB03KT 2SM -SHRA BR VCTS OVC015CB
     FM281300 13005KT 3SM -SHRA BR OVC008
     FM281700 20007KT P6SM OVC025
     FM282200 22007KT P6SM BKN090
     FM290300 25007KT 6SM BR BKN025=



000
FTUS41 KBOX 280525
TAFBOS
TAF
KBOS 280525Z 2806/2912 19006KT 3SM BR SCT005
     FM280700 18006KT 3/4SM BR BKN005
     FM280830 16007KT 2SM -SHRA BR VCTS OVC008CB
     FM281500 17011KT 4SM -SHRA BR OVC012
     FM281800 19013KT P6SM BKN035
     FM290000 23011KT P6SM BKN050
     FM290600 25010KT P6SM SCT050=



000
FTUS41 KBOX 280525
TAFBDL
TAF
KBDL 280525Z 2806/2912 VRB03KT P6SM BKN120
     FM280630 16004KT 5SM -SHRA BR VCTS BKN025 BKN050CB
     FM281200 16005KT 3SM -SHRA BR OVC008
     FM281500 23009KT P6SM BKN025
     FM282100 24009KT P6SM BKN050
     FM290300 27007KT P6SM BKN025
     FM290700 27006KT P6SM SCT050=



000
FTUS41 KBOX 280525
TAFBAF
TAF
KBAF 280525Z 2806/2906 VRB03KT P6SM SCT015 BKN120
     FM280700 VRB03KT 4SM -SHRA BR VCTS BKN015 BKN050CB
     FM281500 21009KT P6SM BKN025
     FM282100 24009KT P6SM BKN050
     FM290000 28008KT P6SM BKN025
     FM290300 28007KT P6SM BKN015=



000
FTUS41 KBOX 280441 AAC
TAFPVD
TAF AMD
KPVD 280441Z 2805/2824 19008KT 4SM BR BKN004
     FM280800 18006KT 3SM -SHRA BR OVC008
     FM281500 19011KT P6SM BKN015
     FM281800 20014KT P6SM VCSH BKN050
     FM282300 24011KT P6SM BKN070=



000
FTUS41 KBOX 280441 AAC
TAFPVD
TAF AMD
KPVD 280441Z 2805/2824 19008KT 4SM BR BKN004
     FM280800 18006KT 3SM -SHRA BR OVC008
     FM281500 19011KT P6SM BKN015
     FM281800 20014KT P6SM VCSH BKN050
     FM282300 24011KT P6SM BKN070=



000
FTUS41 KBOX 280302 AAB
TAFBAF
TAF AMD
KBAF 280302Z 2803/2824 00000KT 3SM BR SCT015
     FM280600 16004KT 2SM -SHRA BR OVC008
     FM281400 18007KT P6SM OVC025
     FM281800 22010KT P6SM VCTS BKN050CB
     FM282200 28009KT P6SM BKN050=



000
FTUS41 KBOX 280302 AAB
TAFBAF
TAF AMD
KBAF 280302Z 2803/2824 00000KT 3SM BR SCT015
     FM280600 16004KT 2SM -SHRA BR OVC008
     FM281400 18007KT P6SM OVC025
     FM281800 22010KT P6SM VCTS BKN050CB
     FM282200 28009KT P6SM BKN050=



000
FTUS41 KBOX 280300 AAB
TAFBOS
TAF AMD
KBOS 280300Z 2803/2906 19007KT P6SM SCT015
     FM280600 19006KT 6SM BR BKN012
     FM280800 18007KT 3SM -SHRA BR OVC008
     FM281600 19013KT 6SM HZ BKN015
     FM281800 19014KT P6SM BKN050
     FM282300 23012KT P6SM BKN050=



000
FTUS41 KBOX 280300 AAB
TAFBOS
TAF AMD
KBOS 280300Z 2803/2906 19007KT P6SM SCT015
     FM280600 19006KT 6SM BR BKN012
     FM280800 18007KT 3SM -SHRA BR OVC008
     FM281600 19013KT 6SM HZ BKN015
     FM281800 19014KT P6SM BKN050
     FM282300 23012KT P6SM BKN050=



000
FTUS41 KBOX 280257 AAB
TAFPVD
TAF AMD
KPVD 280257Z 2803/2824 20005KT 6SM BR SCT015
     FM280600 19005KT 4SM BR BKN012
     FM280800 18006KT 3SM -SHRA BR OVC008
     FM281500 19011KT P6SM BKN015
     FM281800 20014KT P6SM VCSH BKN050
     FM282300 24011KT P6SM BKN070=



000
FTUS41 KBOX 280257 AAB
TAFPVD
TAF AMD
KPVD 280257Z 2803/2824 20005KT 6SM BR SCT015
     FM280600 19005KT 4SM BR BKN012
     FM280800 18006KT 3SM -SHRA BR OVC008
     FM281500 19011KT P6SM BKN015
     FM281800 20014KT P6SM VCSH BKN050
     FM282300 24011KT P6SM BKN070=



000
FTUS41 KBOX 280255 AAA
TAFBDL
TAF AMD
KBDL 280255Z 2803/2906 VRB03KT P6SM SCT015
     FM280600 17005KT 3SM SHRA BR OVC008
     FM281500 19010KT P6SM OVC035
     FM281900 22010KT P6SM VCTS BKN050CB
     FM282300 26009KT P6SM BKN050=



000
FTUS41 KBOX 280115 AAA
TAFACK
TAF AMD
KACK 280115Z 2801/2824 19010KT P6SM OVC012
     FM280400 19008KT 4SM BR OVC008
     FM280900 18013KT 2SM -SHRA BR OVC008
     FM281500 19016KT 2SM BR BKN025
     FM281800 20017KT 3SM BR VCSH BKN008=



000
FTUS41 KBOX 280115 AAA
TAFACK
TAF AMD
KACK 280115Z 2801/2824 19010KT P6SM OVC012
     FM280400 19008KT 4SM BR OVC008
     FM280900 18013KT 2SM -SHRA BR OVC008
     FM281500 19016KT 2SM BR BKN025
     FM281800 20017KT 3SM BR VCSH BKN008=



000
FTUS41 KBOX 280114 AAA
TAFPVD
TAF AMD
KPVD 280114Z 2801/2824 19007KT P6SM SCT010 BKN250
     FM280300 20005KT P6SM BKN012
     FM280900 18006KT 3SM -SHRA BR BKN008
     FM281500 19011KT P6SM BKN015
     FM281800 20014KT P6SM VCSH BKN050
     FM282300 24011KT P6SM BKN070=



000
FTUS41 KBOX 280114 AAA
TAFPVD
TAF AMD
KPVD 280114Z 2801/2824 19007KT P6SM SCT010 BKN250
     FM280300 20005KT P6SM BKN012
     FM280900 18006KT 3SM -SHRA BR BKN008
     FM281500 19011KT P6SM BKN015
     FM281800 20014KT P6SM VCSH BKN050
     FM282300 24011KT P6SM BKN070=



000
FTUS41 KBOX 280104 AAA
TAFBOS
TAF AMD
KBOS 280104Z 2801/2906 19008KT P6SM SCT025 BKN250
     FM280300 19007KT P6SM BKN012
     FM280600 19006KT 3SM BR BKN010
     FM280900 18007KT 3SM -SHRA BR BKN010
     FM281600 19013KT 6SM HZ BKN015
     FM281800 19014KT P6SM BKN050
     FM282300 23012KT P6SM BKN050=



000
FTUS41 KBOX 280104 AAA
TAFBOS
TAF AMD
KBOS 280104Z 2801/2906 19008KT P6SM SCT025 BKN250
     FM280300 19007KT P6SM BKN012
     FM280600 19006KT 3SM BR BKN010
     FM280900 18007KT 3SM -SHRA BR BKN010
     FM281600 19013KT 6SM HZ BKN015
     FM281800 19014KT P6SM BKN050
     FM282300 23012KT P6SM BKN050=



000
FTUS41 KBOX 280025 AAA
TAFBAF
TAF AMD
KBAF 280025Z 2800/2824 20006KT P6SM SCT045 BKN120
      TEMPO 2800/2801 3SM TSRA BR OVC035CB
     FM280800 16004KT 2SM -SHRA BR OVC008
     FM281800 22010KT P6SM VCTS BKN050CB
     FM282200 28009KT P6SM BKN050=



000
FTUS41 KBOX 280025 AAA
TAFBAF
TAF AMD
KBAF 280025Z 2800/2824 20006KT P6SM SCT045 BKN120
      TEMPO 2800/2801 3SM TSRA BR OVC035CB
     FM280800 16004KT 2SM -SHRA BR OVC008
     FM281800 22010KT P6SM VCTS BKN050CB
     FM282200 28009KT P6SM BKN050=



000
FTUS41 KBOX 272333
TAFMHT
TAF
KMHT 272333Z 2800/2824 18006KT P6SM FEW120
     FM280600 VRB03KT 5SM BR BKN050
     FM280900 14004KT 3SM -SHRA BR OVC010
     FM281800 18009KT P6SM VCTS BKN035CB
     FM282300 21008KT P6SM BKN050=



000
FTUS41 KBOX 272333
TAFBAF
TAF
KBAF 272333Z 2800/2824 20007KT 6SM BR VCSH FEW060 BKN100
     FM280000 19005KT P6SM BKN040
     FM280800 16004KT 2SM -SHRA BR OVC008
     FM281800 22010KT P6SM VCTS BKN050CB
     FM282200 28009KT P6SM BKN050=



000
FTUS41 KBOX 272333
TAFPVD
TAF
KPVD 272333Z 2800/2824 18010KT P6SM SCT012 BKN025
     FM280100 19007KT 5SM BR BKN012
     FM280900 18006KT 3SM -SHRA BR BKN008
     FM281500 19011KT P6SM BKN015
     FM281800 20014KT P6SM VCSH BKN050
     FM282300 24011KT P6SM BKN070=



000
FTUS41 KBOX 272333
TAFBDL
TAF
KBDL 272333Z 2800/2906 33020G35KT 4SM TSRA FEW008 BKN035CB
     FM280000 19007KT P6SM VCSH SCT040 BKN070
     FM280300 17006KT 5SM BR SCT008
     FM280800 17005KT 3SM SHRA BR BKN008
     FM281900 22010KT P6SM VCTS BKN050CB
     FM282300 26009KT P6SM BKN050=



000
FTUS41 KBOX 272333
TAFBOS
TAF
KBOS 272333Z 2800/2906 21010G15KT P6SM SCT012
     FM280100 19008KT P6SM BKN012
     FM280600 19006KT 3SM BR BKN010
     FM280900 18007KT 3SM -SHRA BR BKN010
     FM281600 19013KT 6SM HZ BKN015
     FM281800 19014KT P6SM BKN050
     FM282300 23012KT P6SM BKN050=



000
FTUS41 KBOX 272333
TAFACK
TAF
KACK 272333Z 2800/2824 17007KT P6SM SCT007 BKN015
     FM280100 19011KT 6SM BR BKN007
     FM280900 18013KT 2SM -SHRA BR OVC008
     FM281500 19016KT 2SM BR BKN025
     FM281800 20017KT 3SM BR VCSH BKN008=



000
FTUS41 KBOX 272333
TAFORH
TAF
KORH 272333Z 2800/2824 23006KT P6SM SCT020 BKN150
     FM280800 20005KT 3SM -SHRA BR OVC035
     FM281800 22011KT P6SM VCTS BKN045CB
     FM282300 26010KT P6SM BKN050=



000
FTUS41 KBOX 272333
TAFPVD
TAF
KPVD 272333Z 2800/2824 18010KT P6SM SCT012 BKN025
     FM280100 19007KT 5SM BR BKN012
     FM280900 18006KT 3SM -SHRA BR BKN008
     FM281500 19011KT P6SM BKN015
     FM281800 20014KT P6SM VCSH BKN050
     FM282300 24011KT P6SM BKN070=



000
FTUS41 KBOX 272333
TAFBOS
TAF
KBOS 272333Z 2800/2906 21010G15KT P6SM SCT012
     FM280100 19008KT P6SM BKN012
     FM280600 19006KT 3SM BR BKN010
     FM280900 18007KT 3SM -SHRA BR BKN010
     FM281600 19013KT 6SM HZ BKN015
     FM281800 19014KT P6SM BKN050
     FM282300 23012KT P6SM BKN050=



000
FTUS41 KBOX 272333
TAFORH
TAF
KORH 272333Z 2800/2824 23006KT P6SM SCT020 BKN150
     FM280800 20005KT 3SM -SHRA BR OVC035
     FM281800 22011KT P6SM VCTS BKN045CB
     FM282300 26010KT P6SM BKN050=



000
FTUS41 KBOX 272333
TAFBAF
TAF
KBAF 272333Z 2800/2824 20007KT 6SM BR VCSH FEW060 BKN100
     FM280000 19005KT P6SM BKN040
     FM280800 16004KT 2SM -SHRA BR OVC008
     FM281800 22010KT P6SM VCTS BKN050CB
     FM282200 28009KT P6SM BKN050=



000
FTUS41 KBOX 272333
TAFACK
TAF
KACK 272333Z 2800/2824 17007KT P6SM SCT007 BKN015
     FM280100 19011KT 6SM BR BKN007
     FM280900 18013KT 2SM -SHRA BR OVC008
     FM281500 19016KT 2SM BR BKN025
     FM281800 20017KT 3SM BR VCSH BKN008=



000
FTUS41 KBOX 272333
TAFBDL
TAF
KBDL 272333Z 2800/2906 33020G35KT 4SM TSRA FEW008 BKN035CB
     FM280000 19007KT P6SM VCSH SCT040 BKN070
     FM280300 17006KT 5SM BR SCT008
     FM280800 17005KT 3SM SHRA BR BKN008
     FM281900 22010KT P6SM VCTS BKN050CB
     FM282300 26009KT P6SM BKN050=



000
FTUS41 KBOX 272333
TAFMHT
TAF
KMHT 272333Z 2800/2824 18006KT P6SM FEW120
     FM280600 VRB03KT 5SM BR BKN050
     FM280900 14004KT 3SM -SHRA BR OVC010
     FM281800 18009KT P6SM VCTS BKN035CB
     FM282300 21008KT P6SM BKN050=



000
FTUS41 KBOX 272220 AAB
TAFBDL
TAF AMD
KBDL 272220Z 2722/2824 22010KT P6SM SCT045
     FM272245 22010KT 3SM TSRA BKN045CB
     FM280030 22010KT P6SM BKN050
     FM280700 16005KT 5SM -SHRA BR VCTS BKN008CB
     FM281400 18009KT P6SM SCT012 BKN050
     FM281800 22010KT P6SM -SHRA VCTS BKN050CB
     FM282200 26009KT P6SM BKN050=



000
FTUS41 KBOX 272220 AAB
TAFBDL
TAF AMD
KBDL 272220Z 2722/2824 22010KT P6SM SCT045
     FM272245 22010KT 3SM TSRA BKN045CB
     FM280030 22010KT P6SM BKN050
     FM280700 16005KT 5SM -SHRA BR VCTS BKN008CB
     FM281400 18009KT P6SM SCT012 BKN050
     FM281800 22010KT P6SM -SHRA VCTS BKN050CB
     FM282200 26009KT P6SM BKN050=



000
FTUS41 KBOX 272123 AAB
TAFBAF
TAF AMD
KBAF 272123Z 2721/2818 19010KT P6SM FEW060
     FM272200 30030KT 3SM TSRA BR BKN035CB
     FM272300 20010KT P6SM SCT030 BKN090
     FM280700 VRB03KT 3SM -SHRA BR VCTS OVC008CB
     FM281500 19007KT 6SM -SHRA BKN025=



000
FTUS41 KBOX 272123 AAB
TAFBAF
TAF AMD
KBAF 272123Z 2721/2818 19010KT P6SM FEW060
     FM272200 30030KT 3SM TSRA BR BKN035CB
     FM272300 20010KT P6SM SCT030 BKN090
     FM280700 VRB03KT 3SM -SHRA BR VCTS OVC008CB
     FM281500 19007KT 6SM -SHRA BKN025=



000
FTUS41 KBOX 272039 AAA
TAFPVD
TAF AMD
KPVD 272039Z 2721/2818 19010KT P6SM BKN012 OVC020
     FM280900 18006KT 3SM -SHRA BR VCTS BKN008CB
     FM281500 19011KT P6SM BKN015=



000
FTUS41 KBOX 272039 AAA
TAFPVD
TAF AMD
KPVD 272039Z 2721/2818 19010KT P6SM BKN012 OVC020
     FM280900 18006KT 3SM -SHRA BR VCTS BKN008CB
     FM281500 19011KT P6SM BKN015=



000
FTUS41 KBOX 272038 AAA
TAFMHT
TAF AMD
KMHT 272038Z 2721/2818 19009KT P6SM BKN020
     FM280600 VRB03KT 5SM BR BKN050
     FM281000 15004KT 5SM -SHRA BR VCTS BKN050CB
     FM281200 12005KT 2SM -SHRA BR OVC008
     FM281500 15007KT 3SM -SHRA BKN010=



000
FTUS41 KBOX 272038 AAA
TAFMHT
TAF AMD
KMHT 272038Z 2721/2818 19009KT P6SM BKN020
     FM280600 VRB03KT 5SM BR BKN050
     FM281000 15004KT 5SM -SHRA BR VCTS BKN050CB
     FM281200 12005KT 2SM -SHRA BR OVC008
     FM281500 15007KT 3SM -SHRA BKN010=



000
FTUS41 KBOX 272037 AAA
TAFORH
TAF AMD
KORH 272037Z 2721/2818 20012KT P6SM SCT015 BKN020
     FM280600 20004KT 3SM BR BKN060
     FM280900 17007KT 3SM -SHRA BR VCTS OVC003CB
     FM281500 19010KT 6SM -SHRA BKN015=



000
FTUS41 KBOX 272037 AAA
TAFORH
TAF AMD
KORH 272037Z 2721/2818 20012KT P6SM SCT015 BKN020
     FM280600 20004KT 3SM BR BKN060
     FM280900 17007KT 3SM -SHRA BR VCTS OVC003CB
     FM281500 19010KT 6SM -SHRA BKN015=



000
FTUS41 KBOX 272035 AAA
TAFBAF
TAF AMD
KBAF 272035Z 2721/2818 18010KT P6SM SCT030 BKN070
     FM280700 VRB03KT 3SM -SHRA BR VCTS OVC008CB
     FM281500 19007KT 6SM -SHRA BKN025=



000
FTUS41 KBOX 272035 AAA
TAFBDL
TAF AMD
KBDL 272035Z 2721/2824 20010KT P6SM FEW025 SCT040
     FM280700 16005KT 5SM -SHRA BR VCTS BKN008CB
     FM281400 18009KT P6SM SCT012 BKN050
     FM281800 22010KT P6SM -SHRA VCTS BKN050CB
     FM282200 26009KT P6SM BKN050=



000
FTUS41 KBOX 272035 AAA
TAFBAF
TAF AMD
KBAF 272035Z 2721/2818 18010KT P6SM SCT030 BKN070
     FM280700 VRB03KT 3SM -SHRA BR VCTS OVC008CB
     FM281500 19007KT 6SM -SHRA BKN025=



000
FTUS41 KBOX 272033 AAB
TAFBOS
TAF AMD
KBOS 272033Z 2721/2824 19009KT P6SM SCT012 BKN020
     FM281000 18007KT 3SM -SHRA BR VCTS BKN010CB
     FM281600 19013KT P6SM BKN010
     FM281800 20014KT P6SM VCTS BKN050CB=



000
FTUS41 KBOX 272033 AAB
TAFBOS
TAF AMD
KBOS 272033Z 2721/2824 19009KT P6SM SCT012 BKN020
     FM281000 18007KT 3SM -SHRA BR VCTS BKN010CB
     FM281600 19013KT P6SM BKN010
     FM281800 20014KT P6SM VCTS BKN050CB=



000
FTUS41 KBOX 271830 AAA
TAFBOS
TAF AMD
KBOS 271830Z 2719/2824 19009KT P6SM BKN015
     FM271930 19011G19KT P6SM SCT025 BKN035
     FM281000 18007KT 3SM -SHRA BR VCTS BKN010CB
     FM281600 19013KT P6SM BKN010
     FM281800 20014KT P6SM VCTS BKN050CB=



000
FTUS41 KBOX 271830 AAA
TAFBOS
TAF AMD
KBOS 271830Z 2719/2824 19009KT P6SM BKN015
     FM271930 19011G19KT P6SM SCT025 BKN035
     FM281000 18007KT 3SM -SHRA BR VCTS BKN010CB
     FM281600 19013KT P6SM BKN010
     FM281800 20014KT P6SM VCTS BKN050CB=



000
FTUS41 KBOX 271745
TAFMHT
TAF
KMHT 271745Z 2718/2818 19006KT P6SM VCSH SCT015 OVC025
     FM271900 18008KT P6SM BKN025
     FM272100 18008KT P6SM BKN050
     FM280600 VRB03KT 5SM BR BKN050
     FM281000 15004KT 5SM -SHRA BR VCTS BKN050CB
     FM281200 12005KT 2SM -SHRA BR OVC008
     FM281500 15007KT 3SM -SHRA BKN010=



000
FTUS41 KBOX 271745
TAFACK
TAF
KACK 271745Z 2718/2818 17009KT P6SM VCSH BKN050
     FM280300 19012KT 2SM BR BKN003
     FM280900 18013KT 2SM -SHRA BR VCTS SCT003 OVC025CB
     FM281200 18014KT 3/4SM -SHRA BR VCTS OVC008CB
     FM281500 19016KT 2SM BR BKN025=



000
FTUS41 KBOX 271745
TAFPVD
TAF
KPVD 271745Z 2718/2818 19012KT P6SM VCSH BKN015 OVC025
     FM272000 19011G18KT P6SM BKN025
     FM272200 19010G17KT P6SM BKN050
     FM280900 18006KT 3SM -SHRA BR VCTS BKN008CB
     FM281500 19011KT P6SM BKN015=



000
FTUS41 KBOX 271745
TAFACK
TAF
KACK 271745Z 2718/2818 17009KT P6SM VCSH BKN050
     FM280300 19012KT 2SM BR BKN003
     FM280900 18013KT 2SM -SHRA BR VCTS SCT003 OVC025CB
     FM281200 18014KT 3/4SM -SHRA BR VCTS OVC008CB
     FM281500 19016KT 2SM BR BKN025=



000
FTUS41 KBOX 271745
TAFPVD
TAF
KPVD 271745Z 2718/2818 19012KT P6SM VCSH BKN015 OVC025
     FM272000 19011G18KT P6SM BKN025
     FM272200 19010G17KT P6SM BKN050
     FM280900 18006KT 3SM -SHRA BR VCTS BKN008CB
     FM281500 19011KT P6SM BKN015=



000
FTUS41 KBOX 271745
TAFMHT
TAF
KMHT 271745Z 2718/2818 19006KT P6SM VCSH SCT015 OVC025
     FM271900 18008KT P6SM BKN025
     FM272100 18008KT P6SM BKN050
     FM280600 VRB03KT 5SM BR BKN050
     FM281000 15004KT 5SM -SHRA BR VCTS BKN050CB
     FM281200 12005KT 2SM -SHRA BR OVC008
     FM281500 15007KT 3SM -SHRA BKN010=



000
FTUS41 KBOX 271745
TAFBDL
TAF
KBDL 271745Z 2718/2824 18007KT P6SM SCT022 BKN035
     FM280700 16005KT 5SM -SHRA BR VCTS BKN008CB
     FM281400 18009KT P6SM SCT012 BKN050
     FM281800 22010KT P6SM -SHRA VCTS BKN050CB
     FM282200 26009KT P6SM BKN050=



000
FTUS41 KBOX 271745
TAFBOS
TAF
KBOS 271745Z 2718/2824 19012KT 5SM -TSRA BR SCT020 BKN045CB
     FM271900 19011G19KT P6SM SCT025 BKN050
     FM281000 18007KT 3SM -SHRA BR VCTS BKN010CB
     FM281600 19013KT P6SM BKN010
     FM281800 20014KT P6SM VCTS BKN050CB=



000
FTUS41 KBOX 271745
TAFBAF
TAF
KBAF 271745Z 2718/2818 17009KT P6SM VCSH FEW009 BKN015 OVC025
     FM271900 19008KT P6SM BKN030
     FM280700 VRB03KT 3SM -SHRA BR VCTS OVC008CB
     FM281500 19007KT 6SM -SHRA BKN025=



000
FTUS41 KBOX 271745
TAFORH
TAF
KORH 271745Z 2718/2818 18010KT P6SM VCSH BKN013 OVC035
     FM271900 20009KT P6SM BKN040
     FM280600 20004KT 3SM BR BKN060
     FM280900 17007KT 3SM -SHRA BR VCTS OVC003CB
     FM281500 19010KT 6SM -SHRA BKN015=



000
FTUS41 KBOX 271633 AAB
TAFORH
TAF AMD
KORH 271633Z 2717/2812 20006KT 3SM TSRA BR BKN009 OVC060CB
     FM271800 22005KT P6SM SCT012 BKN025
     FM280600 21006KT 3SM -SHRA BR OVC060
     FM280900 18006KT 5SM BR OVC015=



000
FTUS41 KBOX 271633 AAB
TAFORH
TAF AMD
KORH 271633Z 2717/2812 20006KT 3SM TSRA BR BKN009 OVC060CB
     FM271800 22005KT P6SM SCT012 BKN025
     FM280600 21006KT 3SM -SHRA BR OVC060
     FM280900 18006KT 5SM BR OVC015=



000
FTUS41 KBOX 271533 AAB
TAFBDL
TAF AMD
KBDL 271533Z 2716/2818 17008KT 3SM TSRA BR BKN015 OVC060CB
     FM271700 19010KT P6SM BKN045
     FM280900 15005KT 5SM BR OVC008
     FM281500 19008KT P6SM -SHRA BKN015=



000
FTUS41 KBOX 271533 AAB
TAFBDL
TAF AMD
KBDL 271533Z 2716/2818 17008KT 3SM TSRA BR BKN015 OVC060CB
     FM271700 19010KT P6SM BKN045
     FM280900 15005KT 5SM BR OVC008
     FM281500 19008KT P6SM -SHRA BKN015=



000
FTUS41 KBOX 271533 AAB
TAFBAF
TAF AMD
KBAF 271533Z 2716/2812 15007KT 4SM TSRA BR BKN015 OVC020CB
     FM271700 19006KT P6SM BKN050
     FM280900 13005KT 5SM BR OVC008
     FM281100 16005KT 5SM -SHRA BR OVC010=



000
FTUS41 KBOX 271533 AAB
TAFBAF
TAF AMD
KBAF 271533Z 2716/2812 15007KT 4SM TSRA BR BKN015 OVC020CB
     FM271700 19006KT P6SM BKN050
     FM280900 13005KT 5SM BR OVC008
     FM281100 16005KT 5SM -SHRA BR OVC010=



000
FTUS41 KBOX 271446 AAA
TAFACK
TAF AMD
KACK 271446Z 2715/2812 17014KT P6SM FEW015 SCT025 BKN090
     FM271600 18011KT P6SM -SHRA BKN025
     FM272000 18011G19KT P6SM BKN030
     FM280100 19011KT 3SM -SHRA BR BKN008
     FM280600 19010KT 3SM -SHRA BR OVC003=



000
FTUS41 KBOX 271441 AAA
TAFPVD
TAF AMD
KPVD 271441Z 2715/2812 20012KT P6SM VCTS SCT015 BKN025CB
     FM271530 19011G22KT P6SM VCTS OVC020CB
     FM271900 19008KT P6SM BKN035
     FM280300 19006KT 5SM -SHRA BR OVC010
     FM280800 17006KT 5SM BR OVC010=



000
FTUS41 KBOX 271441 AAA
TAFPVD
TAF AMD
KPVD 271441Z 2715/2812 20012KT P6SM VCTS SCT015 BKN025CB
     FM271530 19011G22KT P6SM VCTS OVC020CB
     FM271900 19008KT P6SM BKN035
     FM280300 19006KT 5SM -SHRA BR OVC010
     FM280800 17006KT 5SM BR OVC010=



000
FTUS41 KBOX 271439 AAA
TAFMHT
TAF AMD
KMHT 271439Z 2715/2812 20012KT P6SM SCT020 BKN030
     FM271530 19010G20KT P6SM VCTS BKN020CB
     FM271900 17006KT P6SM SCT020 BKN035
     FM280800 12004KT 5SM -SHRA BR OVC015=



000
FTUS41 KBOX 271439 AAA
TAFMHT
TAF AMD
KMHT 271439Z 2715/2812 20012KT P6SM SCT020 BKN030
     FM271530 19010G20KT P6SM VCTS BKN020CB
     FM271900 17006KT P6SM SCT020 BKN035
     FM280800 12004KT 5SM -SHRA BR OVC015=



000
FTUS41 KBOX 271436 AAA
TAFORH
TAF AMD
KORH 271436Z 2715/2812 20009KT P6SM VCTS BKN012 OVC020CB
     FM271700 19010G19KT P6SM BKN030
     FM280200 22005KT P6SM BKN020
     FM280600 21006KT 3SM -SHRA BR OVC060
     FM280900 18006KT 5SM BR OVC015=



000
FTUS41 KBOX 271436 AAA
TAFORH
TAF AMD
KORH 271436Z 2715/2812 20009KT P6SM VCTS BKN012 OVC020CB
     FM271700 19010G19KT P6SM BKN030
     FM280200 22005KT P6SM BKN020
     FM280600 21006KT 3SM -SHRA BR OVC060
     FM280900 18006KT 5SM BR OVC015=



000
FTUS41 KBOX 271430 AAA
TAFBAF
TAF AMD
KBAF 271430Z 2715/2812 19008KT 3SM SHRA BR VCTS SCT020 BKN035CB
     FM271600 18009KT P6SM BKN030
     FM280000 19006KT P6SM BKN050
     FM280900 13005KT 5SM BR OVC008
     FM281100 16005KT 5SM -SHRA BR OVC010=



000
FTUS41 KBOX 271430 AAA
TAFBAF
TAF AMD
KBAF 271430Z 2715/2812 19008KT 3SM SHRA BR VCTS SCT020 BKN035CB
     FM271600 18009KT P6SM BKN030
     FM280000 19006KT P6SM BKN050
     FM280900 13005KT 5SM BR OVC008
     FM281100 16005KT 5SM -SHRA BR OVC010=



000
FTUS41 KBOX 271427 AAA
TAFBDL
TAF AMD
KBDL 271427Z 2714/2818 21007KT 6SM -SHRA BR VCTS SCT020 BKN040CB
     FM271600 18009KT P6SM BKN025
     FM280000 18008KT P6SM BKN050
     FM280900 15005KT 5SM BR OVC008
     FM281500 19008KT P6SM -SHRA BKN015=



000
FTUS41 KBOX 271427 AAA
TAFBDL
TAF AMD
KBDL 271427Z 2714/2818 21007KT 6SM -SHRA BR VCTS SCT020 BKN040CB
     FM271600 18009KT P6SM BKN025
     FM280000 18008KT P6SM BKN050
     FM280900 15005KT 5SM BR OVC008
     FM281500 19008KT P6SM -SHRA BKN015=



000
FTUS41 KBOX 271417 AAA
TAFBOS
TAF AMD
KBOS 271417Z 2714/2818 20009KT P6SM FEW015 SCT025 BKN090
     FM271500 20010G20KT 6SM -SHRA VCTS BKN015CB OVC035
     FM271900 19013G25KT P6SM SCT015 BKN035
     FM280000 19011KT P6SM BKN050
     FM280300 19009KT 5SM -SHRA BKN015
     FM281000 15009KT 5SM BR OVC020
     FM281700 19014KT P6SM BKN015=



000
FTUS41 KBOX 271417 AAA
TAFBOS
TAF AMD
KBOS 271417Z 2714/2818 20009KT P6SM FEW015 SCT025 BKN090
     FM271500 20010G20KT 6SM -SHRA VCTS BKN015CB OVC035
     FM271900 19013G25KT P6SM SCT015 BKN035
     FM280000 19011KT P6SM BKN050
     FM280300 19009KT 5SM -SHRA BKN015
     FM281000 15009KT 5SM BR OVC020
     FM281700 19014KT P6SM BKN015=



000
FTUS41 KBOX 271120
TAFBAF
TAF
KBAF 271120Z 2712/2812 17005KT P6SM OVC015
     FM271300 19007KT 5SM -SHRA VCTS OVC050CB
     FM271600 18009KT P6SM VCTS OVC060CB
     FM280000 19006KT P6SM BKN050
     FM280900 13005KT 5SM BR OVC008
     FM281100 16005KT 5SM -SHRA BR OVC010=



000
FTUS41 KBOX 271120
TAFBOS
TAF
KBOS 271120Z 2712/2818 20008KT P6SM BKN010
     FM271500 20010G20KT 6SM -SHRA VCTS BKN050CB
     FM271700 19013G25KT P6SM VCTS OVC050CB
     FM280000 19011KT P6SM BKN050
     FM280300 19009KT 5SM -SHRA BKN015
     FM281000 15009KT 5SM BR OVC020
     FM281700 19014KT P6SM BKN015=



000
FTUS41 KBOX 271120
TAFBOS
TAF
KBOS 271120Z 2712/2818 20008KT P6SM BKN010
     FM271500 20010G20KT 6SM -SHRA VCTS BKN050CB
     FM271700 19013G25KT P6SM VCTS OVC050CB
     FM280000 19011KT P6SM BKN050
     FM280300 19009KT 5SM -SHRA BKN015
     FM281000 15009KT 5SM BR OVC020
     FM281700 19014KT P6SM BKN015=



000
FTUS41 KBOX 271120
TAFMHT
TAF
KMHT 271120Z 2712/2812 19006KT P6SM BKN010
     FM271400 20007KT 5SM -SHRA VCTS BKN050CB
     FM271600 19010G20KT P6SM VCTS OVC040CB
     FM280000 17006KT P6SM BKN050
     FM280800 12004KT 5SM -SHRA BR OVC015=



000
FTUS41 KBOX 271120
TAFBDL
TAF
KBDL 271120Z 2712/2818 18006KT P6SM BKN010
     FM271300 19007KT 5SM -SHRA VCTS OVC050CB
     FM271500 18009KT P6SM VCTS OVC060CB
     FM280000 18008KT P6SM BKN050
     FM280900 15005KT 5SM BR OVC008
     FM281500 19008KT P6SM -SHRA BKN015=



000
FTUS41 KBOX 271120
TAFACK
TAF
KACK 271120Z 2712/2812 18010KT 6SM BR SCT150
     FM271600 18011KT 5SM -SHRA VCTS BKN060CB
     FM271800 18011G19KT P6SM VCTS BKN060CB
     FM280100 19011KT 3SM -SHRA BR BKN008
     FM280600 19010KT 3SM -SHRA BR OVC003=



000
FTUS41 KBOX 271120
TAFPVD
TAF
KPVD 271120Z 2712/2812 19007KT P6SM BKN010
     FM271400 18011G18KT 5SM -SHRA VCTS OVC050CB
     FM271600 19011G22KT P6SM VCTS OVC060CB
     FM280000 19008KT P6SM BKN050
     FM280300 19006KT 5SM -SHRA BR OVC010
     FM280800 17006KT 5SM BR OVC010=



000
FTUS41 KBOX 271120
TAFORH
TAF
KORH 271120Z 2712/2812 21007KT 4SM BR OVC004
     FM271400 20009KT 5SM -SHRA VCTS OVC040CB
     FM271600 19010G19KT P6SM VCTS OVC040CB
     FM280200 22005KT P6SM BKN020
     FM280600 21006KT 3SM -SHRA BR OVC060
     FM280900 18006KT 5SM BR OVC015=



000
FTUS41 KBOX 271120
TAFBDL
TAF
KBDL 271120Z 2712/2818 18006KT P6SM BKN010
     FM271300 19007KT 5SM -SHRA VCTS OVC050CB
     FM271500 18009KT P6SM VCTS OVC060CB
     FM280000 18008KT P6SM BKN050
     FM280900 15005KT 5SM BR OVC008
     FM281500 19008KT P6SM -SHRA BKN015=



000
FTUS41 KBOX 271120
TAFACK
TAF
KACK 271120Z 2712/2812 18010KT 6SM BR SCT150
     FM271600 18011KT 5SM -SHRA VCTS BKN060CB
     FM271800 18011G19KT P6SM VCTS BKN060CB
     FM280100 19011KT 3SM -SHRA BR BKN008
     FM280600 19010KT 3SM -SHRA BR OVC003=



000
FTUS41 KBOX 271120
TAFORH
TAF
KORH 271120Z 2712/2812 21007KT 4SM BR OVC004
     FM271400 20009KT 5SM -SHRA VCTS OVC040CB
     FM271600 19010G19KT P6SM VCTS OVC040CB
     FM280200 22005KT P6SM BKN020
     FM280600 21006KT 3SM -SHRA BR OVC060
     FM280900 18006KT 5SM BR OVC015=



000
FTUS41 KBOX 271120
TAFBAF
TAF
KBAF 271120Z 2712/2812 17005KT P6SM OVC015
     FM271300 19007KT 5SM -SHRA VCTS OVC050CB
     FM271600 18009KT P6SM VCTS OVC060CB
     FM280000 19006KT P6SM BKN050
     FM280900 13005KT 5SM BR OVC008
     FM281100 16005KT 5SM -SHRA BR OVC010=



000
FTUS41 KBOX 271120
TAFMHT
TAF
KMHT 271120Z 2712/2812 19006KT P6SM BKN010
     FM271400 20007KT 5SM -SHRA VCTS BKN050CB
     FM271600 19010G20KT P6SM VCTS OVC040CB
     FM280000 17006KT P6SM BKN050
     FM280800 12004KT 5SM -SHRA BR OVC015=



000
FTUS41 KBOX 271120
TAFPVD
TAF
KPVD 271120Z 2712/2812 19007KT P6SM BKN010
     FM271400 18011G18KT 5SM -SHRA VCTS OVC050CB
     FM271600 19011G22KT P6SM VCTS OVC060CB
     FM280000 19008KT P6SM BKN050
     FM280300 19006KT 5SM -SHRA BR OVC010
     FM280800 17006KT 5SM BR OVC010=



000
FTUS41 KBOX 270836 AAB
TAFBOS
TAF AMD
KBOS 270836Z 2709/2812 21008KT P6SM SCT008 BKN015
     FM271200 21010KT P6SM SCT015 BKN060
     FM271500 20013G20KT 6SM -SHRA VCTS OVC050CB
     FM271800 19013G22KT P6SM BKN050
     FM280000 19011KT P6SM BKN015
     FM280600 19008KT 4SM -SHRA BR OVC015
     FM281000 15009KT 5SM BR OVC020=



000
FTUS41 KBOX 270836 AAB
TAFBOS
TAF AMD
KBOS 270836Z 2709/2812 21008KT P6SM SCT008 BKN015
     FM271200 21010KT P6SM SCT015 BKN060
     FM271500 20013G20KT 6SM -SHRA VCTS OVC050CB
     FM271800 19013G22KT P6SM BKN050
     FM280000 19011KT P6SM BKN015
     FM280600 19008KT 4SM -SHRA BR OVC015
     FM281000 15009KT 5SM BR OVC020=



000
FTUS41 KBOX 270803 AAA
TAFBAF
TAF AMD
KBAF 270803Z 2708/2806 16005KT P6SM BKN015
     FM271200 19004KT 5SM -SHRA BR VCTS OVC045CB
     FM271500 21009KT P6SM BKN050
     FM272300 19007KT P6SM BKN030=



000
FTUS41 KBOX 270803 AAA
TAFPVD
TAF AMD
KPVD 270803Z 2708/2806 20005KT P6SM BKN015
     FM271500 19010G18KT 6SM -SHRA VCTS OVC040CB
     FM271800 19012G22KT P6SM BKN040
     FM272300 19009KT P6SM BKN010
     FM280200 19007KT 6SM -SHRA BR OVC008=



000
FTUS41 KBOX 270803 AAA
TAFPVD
TAF AMD
KPVD 270803Z 2708/2806 20005KT P6SM BKN015
     FM271500 19010G18KT 6SM -SHRA VCTS OVC040CB
     FM271800 19012G22KT P6SM BKN040
     FM272300 19009KT P6SM BKN010
     FM280200 19007KT 6SM -SHRA BR OVC008=



000
FTUS41 KBOX 270802 AAA
TAFBOS
TAF AMD
KBOS 270802Z 2708/2812 21008KT P6SM SCT010 SCT080
     FM271500 20013G20KT 6SM -SHRA VCTS OVC050CB
     FM271800 19013G22KT P6SM BKN050
     FM280000 19011KT P6SM BKN015
     FM280600 19008KT 4SM -SHRA BR OVC015
     FM281000 15009KT 5SM BR OVC020=



000
FTUS41 KBOX 270802 AAA
TAFBOS
TAF AMD
KBOS 270802Z 2708/2812 21008KT P6SM SCT010 SCT080
     FM271500 20013G20KT 6SM -SHRA VCTS OVC050CB
     FM271800 19013G22KT P6SM BKN050
     FM280000 19011KT P6SM BKN015
     FM280600 19008KT 4SM -SHRA BR OVC015
     FM281000 15009KT 5SM BR OVC020=



000
FTUS41 KBOX 270711 AAA
TAFORH
TAF AMD
KORH 270711Z 2707/2806 21006KT P6SM BKN005 OVC015
     FM271300 21009KT 6SM -SHRA VCTS SCT015 BKN040CB
     FM271600 21010G19KT P6SM BKN045
     FM280300 23005KT 5SM BR BKN015=



000
FTUS41 KBOX 270711 AAA
TAFORH
TAF AMD
KORH 270711Z 2707/2806 21006KT P6SM BKN005 OVC015
     FM271300 21009KT 6SM -SHRA VCTS SCT015 BKN040CB
     FM271600 21010G19KT P6SM BKN045
     FM280300 23005KT 5SM BR BKN015=



000
FTUS41 KBOX 270710 AAA
TAFBDL
TAF AMD
KBDL 270710Z 2707/2812 18004KT P6SM BKN015 BKN100
     FM271200 18006KT 5SM -SHRA BR VCTS OVC045CB
     FM271500 21011KT P6SM BKN050
     FM280900 15005KT 5SM BR OVC008=



000
FTUS41 KBOX 270710 AAA
TAFBDL
TAF AMD
KBDL 270710Z 2707/2812 18004KT P6SM BKN015 BKN100
     FM271200 18006KT 5SM -SHRA BR VCTS OVC045CB
     FM271500 21011KT P6SM BKN050
     FM280900 15005KT 5SM BR OVC008=



000
FTUS41 KBOX 270525
TAFMHT
TAF
KMHT 270525Z 2706/2806 VRB03KT P6SM SCT200
     FM271400 18007KT 6SM -SHRA VCTS BKN050CB
     FM271700 19008KT P6SM BKN050
     FM280300 17004KT P6SM BKN040=



000
FTUS41 KBOX 270525
TAFORH
TAF
KORH 270525Z 2706/2806 24006KT P6SM BKN015
     FM270900 23006KT P6SM SCT015 BKN080
     FM271300 21009KT 6SM -SHRA VCTS BKN040CB
     FM271600 21010G19KT P6SM BKN045
     FM280300 23005KT 5SM BR BKN015=



000
FTUS41 KBOX 270525
TAFPVD
TAF
KPVD 270525Z 2706/2806 21005KT P6SM SCT060
     FM271500 19010G18KT 6SM -SHRA VCTS OVC060CB
     FM271800 19012G22KT P6SM BKN040
     FM272300 19009KT P6SM BKN010
     FM280200 19007KT 6SM -SHRA BR OVC008=



000
FTUS41 KBOX 270525
TAFBDL
TAF
KBDL 270525Z 2706/2812 18004KT P6SM BKN090
     FM271200 18006KT 5SM -SHRA BR VCTS OVC045CB
     FM271500 21011KT P6SM BKN050
     FM280900 15005KT 5SM BR OVC008=



000
FTUS41 KBOX 270525
TAFACK
TAF
KACK 270525Z 2706/2806 22005KT P6SM SCT045
     FM270800 19009KT 6SM BR SCT045
     FM271600 18012KT P6SM -SHRA OVC070
     FM271800 18012KT P6SM BKN080
     FM280100 19011KT 3SM -SHRA BR BKN003=



000
FTUS41 KBOX 270525
TAFBOS
TAF
KBOS 270525Z 2706/2812 22010KT P6SM SCT080
     FM271500 20013G20KT 6SM -SHRA VCTS OVC050CB
     FM271800 19013G22KT P6SM BKN050
     FM280000 19011KT P6SM BKN015
     FM280600 19008KT 4SM -SHRA BR OVC015
     FM281000 15009KT 5SM BR OVC020=



000
FTUS41 KBOX 270525
TAFACK
TAF
KACK 270525Z 2706/2806 22005KT P6SM SCT045
     FM270800 19009KT 6SM BR SCT045
     FM271600 18012KT P6SM -SHRA OVC070
     FM271800 18012KT P6SM BKN080
     FM280100 19011KT 3SM -SHRA BR BKN003=



000
FTUS41 KBOX 270525
TAFORH
TAF
KORH 270525Z 2706/2806 24006KT P6SM BKN015
     FM270900 23006KT P6SM SCT015 BKN080
     FM271300 21009KT 6SM -SHRA VCTS BKN040CB
     FM271600 21010G19KT P6SM BKN045
     FM280300 23005KT 5SM BR BKN015=



000
FTUS41 KBOX 270525
TAFBDL
TAF
KBDL 270525Z 2706/2812 18004KT P6SM BKN090
     FM271200 18006KT 5SM -SHRA BR VCTS OVC045CB
     FM271500 21011KT P6SM BKN050
     FM280900 15005KT 5SM BR OVC008=



000
FTUS41 KBOX 270525
TAFBOS
TAF
KBOS 270525Z 2706/2812 22010KT P6SM SCT080
     FM271500 20013G20KT 6SM -SHRA VCTS OVC050CB
     FM271800 19013G22KT P6SM BKN050
     FM280000 19011KT P6SM BKN015
     FM280600 19008KT 4SM -SHRA BR OVC015
     FM281000 15009KT 5SM BR OVC020=



000
FTUS41 KBOX 270525
TAFPVD
TAF
KPVD 270525Z 2706/2806 21005KT P6SM SCT060
     FM271500 19010G18KT 6SM -SHRA VCTS OVC060CB
     FM271800 19012G22KT P6SM BKN040
     FM272300 19009KT P6SM BKN010
     FM280200 19007KT 6SM -SHRA BR OVC008=



000
FTUS41 KBOX 270525
TAFMHT
TAF
KMHT 270525Z 2706/2806 VRB03KT P6SM SCT200
     FM271400 18007KT 6SM -SHRA VCTS BKN050CB
     FM271700 19008KT P6SM BKN050
     FM280300 17004KT P6SM BKN040=



000
FTUS41 KBOX 270525
TAFBAF
TAF
KBAF 270525Z 2706/2806 18005KT P6SM BKN100
     FM271200 19004KT 5SM -SHRA BR VCTS OVC045CB
     FM271500 21009KT P6SM BKN050
     FM272300 19007KT P6SM BKN030=



000
FTUS41 KBOX 270525
TAFBAF
TAF
KBAF 270525Z 2706/2806 18005KT P6SM BKN100
     FM271200 19004KT 5SM -SHRA BR VCTS OVC045CB
     FM271500 21009KT P6SM BKN050
     FM272300 19007KT P6SM BKN030=



000
FTUS41 KBOX 262325
TAFBOS
TAF
KBOS 262325Z 2700/2806 21010G17KT P6SM SCT050
     FM270400 20007KT P6SM FEW200
     FM271000 21009KT 6SM BR VCSH BKN130
     FM271600 20011G18KT 6SM -RA BR VCTS BKN070CB
     FM271800 20012G23KT P6SM BKN040
     FM272300 19009KT 6SM BR SCT040=



000
FTUS41 KBOX 262325
TAFBAF
TAF
KBAF 262325Z 2700/2724 21007KT P6SM SCT100
     FM270800 19005KT 6SM BR VCSH BKN130
     FM271200 20006KT 3SM -RA BR VCTS OVC060CB
     FM271500 20007KT P6SM BKN050=



000
FTUS41 KBOX 262325
TAFBDL
TAF
KBDL 262325Z 2700/2806 21007KT P6SM SCT150
     FM270800 18004KT P6SM VCSH BKN140
     FM271200 20005KT 5SM BR VCTS BKN080CB
     FM271500 19008KT P6SM BKN050=



000
FTUS41 KBOX 262325
TAFMHT
TAF
KMHT 262325Z 2700/2724 24008KT P6SM FEW140
     FM270900 20005KT P6SM VCTS BKN080CB
     FM271200 21007KT 6SM BR BKN090
     FM271400 19006KT 6SM -RA BR VCTS BKN040CB
     FM271800 20009KT 6SM BR BKN060=



000
FTUS41 KBOX 262325
TAFBOS
TAF
KBOS 262325Z 2700/2806 21010G17KT P6SM SCT050
     FM270400 20007KT P6SM FEW200
     FM271000 21009KT 6SM BR VCSH BKN130
     FM271600 20011G18KT 6SM -RA BR VCTS BKN070CB
     FM271800 20012G23KT P6SM BKN040
     FM272300 19009KT 6SM BR SCT040=



000
FTUS41 KBOX 262325
TAFACK
TAF
KACK 262325Z 2700/2724 21009KT P6SM BKN120
     FM270300 22007KT 5SM BR SCT110
     FM270800 21009KT 2SM BR SCT110
     FM271200 20012KT 3SM BR SCT140
     FM271700 19014G21KT P6SM BKN090
     FM272100 19015G24KT 5SM BR VCSH BKN050=



000
FTUS41 KBOX 262325
TAFORH
TAF
KORH 262325Z 2700/2724 24009KT P6SM SCT050
     FM270900 21009KT 6SM BR VCSH BKN090
     FM271500 20009KT 5SM -RA BR VCTS BKN040CB
     FM271800 20010G21KT P6SM BKN150=



000
FTUS41 KBOX 262325
TAFACK
TAF
KACK 262325Z 2700/2724 21009KT P6SM BKN120
     FM270300 22007KT 5SM BR SCT110
     FM270800 21009KT 2SM BR SCT110
     FM271200 20012KT 3SM BR SCT140
     FM271700 19014G21KT P6SM BKN090
     FM272100 19015G24KT 5SM BR VCSH BKN050=



000
FTUS41 KBOX 262325
TAFORH
TAF
KORH 262325Z 2700/2724 24009KT P6SM SCT050
     FM270900 21009KT 6SM BR VCSH BKN090
     FM271500 20009KT 5SM -RA BR VCTS BKN040CB
     FM271800 20010G21KT P6SM BKN150=



000
FTUS41 KBOX 262325
TAFBAF
TAF
KBAF 262325Z 2700/2724 21007KT P6SM SCT100
     FM270800 19005KT 6SM BR VCSH BKN130
     FM271200 20006KT 3SM -RA BR VCTS OVC060CB
     FM271500 20007KT P6SM BKN050=



000
FTUS41 KBOX 262325
TAFMHT
TAF
KMHT 262325Z 2700/2724 24008KT P6SM FEW140
     FM270900 20005KT P6SM VCTS BKN080CB
     FM271200 21007KT 6SM BR BKN090
     FM271400 19006KT 6SM -RA BR VCTS BKN040CB
     FM271800 20009KT 6SM BR BKN060=



000
FTUS41 KBOX 262325
TAFPVD
TAF
KPVD 262325Z 2700/2724 21009KT P6SM FEW130
     FM270400 21005KT P6SM SCT250
     FM270800 20004KT 6SM BR SCT140
     FM271200 21009KT P6SM BKN130
     FM271700 19011G21KT P6SM VCSH BKN050=



000
FTUS41 KBOX 262325
TAFBDL
TAF
KBDL 262325Z 2700/2806 21007KT P6SM SCT150
     FM270800 18004KT P6SM VCSH BKN140
     FM271200 20005KT 5SM BR VCTS BKN080CB
     FM271500 19008KT P6SM BKN050=



000
FTUS41 KBOX 262325
TAFPVD
TAF
KPVD 262325Z 2700/2724 21009KT P6SM FEW130
     FM270400 21005KT P6SM SCT250
     FM270800 20004KT 6SM BR SCT140
     FM271200 21009KT P6SM BKN130
     FM271700 19011G21KT P6SM VCSH BKN050=



000
FTUS41 KBOX 261748
TAFMHT
TAF
KMHT 261748Z 2618/2718 25008KT P6SM SCT060 SCT250
     FM270000 22004KT P6SM FEW060 SCT250
     FM270900 20005KT 6SM BR BKN090
     FM271400 19006KT 5SM TSRA BR OVC030CB
     FM271600 19009G15KT P6SM BKN050=



000
FTUS41 KBOX 261748
TAFBDL
TAF
KBDL 261748Z 2618/2724 23011KT P6SM BKN060
     FM270000 21006KT P6SM SCT050 SCT250
     FM270900 19005KT 4SM BR BKN015
     FM271200 19006KT 3SM TSRA BR OVC015CB
     FM271400 19008KT P6SM BKN030
     FM271800 20010G16KT P6SM BKN050=



000
FTUS41 KBOX 261748
TAFBAF
TAF
KBAF 261748Z 2618/2718 25009KT P6SM SCT060 SCT250
     FM262300 23006KT P6SM SCT060 SCT250
     FM270400 20004KT P6SM SCT250
     FM270900 19005KT 3SM BR BKN015
     FM271200 19005KT 3SM TSRA BR OVC015CB
     FM271400 20009KT P6SM BKN040=



000
FTUS41 KBOX 261748
TAFBOS
TAF
KBOS 261748Z 2618/2724 21012G18KT P6SM BKN060 BKN250
     FM262200 21012KT P6SM SCT060
     FM270400 21009KT P6SM SCT250
     FM270900 20008KT 6SM BR BKN080
     FM271500 20010KT 5SM TSRA BKN030CB
     FM271700 20012G19KT P6SM BKN040=



000
FTUS41 KBOX 261748
TAFORH
TAF
KORH 261748Z 2618/2718 23009G16KT P6SM SCT060 BKN250
     FM262300 23008KT P6SM SCT060 SCT250
     FM270400 22006KT P6SM SCT250
     FM270900 21007KT 5SM BR BKN010
     FM271300 21008KT 5SM TSRA BR BKN015CB
     FM271500 20009KT 6SM -SHRA BKN025
     FM271600 20010G18KT P6SM BKN040=



000
FTUS41 KBOX 261748
TAFACK
TAF
KACK 261748Z 2618/2718 20010KT P6SM SCT060 BKN150
     FM270000 21007KT P6SM BKN090
     FM270600 21010KT 3SM BR SCT250
     FM270900 20011KT 1 1/2SM BR SCT008 BKN250
     FM271200 19011KT 3SM BR BKN120
     FM271400 19013G18KT P6SM BKN120=



000
FTUS41 KBOX 261748
TAFPVD
TAF
KPVD 261748Z 2618/2718 24011G19KT P6SM BKN050 BKN180
     FM270000 21008KT P6SM SCT060 BKN250
     FM270500 21006KT P6SM SCT250
     FM270700 21006KT P6SM BKN090
     FM270900 20007KT P6SM BKN025
     FM271200 20008KT P6SM BKN050
     FM271500 20010G18KT P6SM BKN050=



000
FTUS41 KBOX 261748
TAFORH
TAF
KORH 261748Z 2618/2718 23009G16KT P6SM SCT060 BKN250
     FM262300 23008KT P6SM SCT060 SCT250
     FM270400 22006KT P6SM SCT250
     FM270900 21007KT 5SM BR BKN010
     FM271300 21008KT 5SM TSRA BR BKN015CB
     FM271500 20009KT 6SM -SHRA BKN025
     FM271600 20010G18KT P6SM BKN040=



000
FTUS41 KBOX 261748
TAFBDL
TAF
KBDL 261748Z 2618/2724 23011KT P6SM BKN060
     FM270000 21006KT P6SM SCT050 SCT250
     FM270900 19005KT 4SM BR BKN015
     FM271200 19006KT 3SM TSRA BR OVC015CB
     FM271400 19008KT P6SM BKN030
     FM271800 20010G16KT P6SM BKN050=



000
FTUS41 KBOX 261748
TAFBAF
TAF
KBAF 261748Z 2618/2718 25009KT P6SM SCT060 SCT250
     FM262300 23006KT P6SM SCT060 SCT250
     FM270400 20004KT P6SM SCT250
     FM270900 19005KT 3SM BR BKN015
     FM271200 19005KT 3SM TSRA BR OVC015CB
     FM271400 20009KT P6SM BKN040=



000
FTUS41 KBOX 261748
TAFMHT
TAF
KMHT 261748Z 2618/2718 25008KT P6SM SCT060 SCT250
     FM270000 22004KT P6SM FEW060 SCT250
     FM270900 20005KT 6SM BR BKN090
     FM271400 19006KT 5SM TSRA BR OVC030CB
     FM271600 19009G15KT P6SM BKN050=



000
FTUS41 KBOX 261748
TAFBOS
TAF
KBOS 261748Z 2618/2724 21012G18KT P6SM BKN060 BKN250
     FM262200 21012KT P6SM SCT060
     FM270400 21009KT P6SM SCT250
     FM270900 20008KT 6SM BR BKN080
     FM271500 20010KT 5SM TSRA BKN030CB
     FM271700 20012G19KT P6SM BKN040=



000
FTUS41 KBOX 261748
TAFPVD
TAF
KPVD 261748Z 2618/2718 24011G19KT P6SM BKN050 BKN180
     FM270000 21008KT P6SM SCT060 BKN250
     FM270500 21006KT P6SM SCT250
     FM270700 21006KT P6SM BKN090
     FM270900 20007KT P6SM BKN025
     FM271200 20008KT P6SM BKN050
     FM271500 20010G18KT P6SM BKN050=



000
FTUS41 KBOX 261748
TAFACK
TAF
KACK 261748Z 2618/2718 20010KT P6SM SCT060 BKN150
     FM270000 21007KT P6SM BKN090
     FM270600 21010KT 3SM BR SCT250
     FM270900 20011KT 1 1/2SM BR SCT008 BKN250
     FM271200 19011KT 3SM BR BKN120
     FM271400 19013G18KT P6SM BKN120=



000
FTUS41 KBOX 261611 AAA
TAFBAF
TAF AMD
KBAF 261611Z 2616/2712 22008KT P6SM BKN060 BKN200
     FM261800 22010G16KT P6SM BKN060 BKN250
     FM270000 20005KT P6SM SCT250
     FM270900 19005KT 3SM BR BKN015=



000
FTUS41 KBOX 261611 AAA
TAFBAF
TAF AMD
KBAF 261611Z 2616/2712 22008KT P6SM BKN060 BKN200
     FM261800 22010G16KT P6SM BKN060 BKN250
     FM270000 20005KT P6SM SCT250
     FM270900 19005KT 3SM BR BKN015=



000
FTUS41 KBOX 261609 AAA
TAFACK
TAF AMD
KACK 261609Z 2616/2712 20010G15KT P6SM SCT060 BKN200
     FM261900 21011G17KT P6SM BKN060 OVC200
     FM270200 21011KT 5SM BR BKN110
     FM270900 20012KT 2SM BR BKN200=



000
FTUS41 KBOX 261609 AAA
TAFACK
TAF AMD
KACK 261609Z 2616/2712 20010G15KT P6SM SCT060 BKN200
     FM261900 21011G17KT P6SM BKN060 OVC200
     FM270200 21011KT 5SM BR BKN110
     FM270900 20012KT 2SM BR BKN200=



000
FTUS41 KBOX 261606 AAA
TAFPVD
TAF AMD
KPVD 261606Z 2616/2712 23011G19KT P6SM SCT045 BKN200
     FM261800 23013G19KT P6SM BKN060 OVC200
     FM270000 21009KT P6SM BKN100=



000
FTUS41 KBOX 261606 AAA
TAFPVD
TAF AMD
KPVD 261606Z 2616/2712 23011G19KT P6SM SCT045 BKN200
     FM261800 23013G19KT P6SM BKN060 OVC200
     FM270000 21009KT P6SM BKN100=



000
FTUS41 KBOX 261603 AAA
TAFMHT
TAF AMD
KMHT 261603Z 2616/2712 24008G15KT P6SM SCT050 BKN250
     FM262300 19005KT P6SM SCT250
     FM270800 16003KT P6SM OVC050=



000
FTUS41 KBOX 261603 AAA
TAFMHT
TAF AMD
KMHT 261603Z 2616/2712 24008G15KT P6SM SCT050 BKN250
     FM262300 19005KT P6SM SCT250
     FM270800 16003KT P6SM OVC050=



000
FTUS41 KBOX 261602 AAA
TAFBOS
TAF AMD
KBOS 261602Z 2616/2718 22013G19KT P6SM BKN050 BKN250
     FM262100 22012KT P6SM FEW050 BKN250
     FM270800 22006KT P6SM OVC100=



000
FTUS41 KBOX 261602 AAA
TAFBOS
TAF AMD
KBOS 261602Z 2616/2718 22013G19KT P6SM BKN050 BKN250
     FM262100 22012KT P6SM FEW050 BKN250
     FM270800 22006KT P6SM OVC100=



000
FTUS41 KBOX 261601 AAA
TAFORH
TAF AMD
KORH 261601Z 2616/2712 23011G20KT P6SM SCT050 BKN200
     FM261900 23010G20KT P6SM BKN050 OVC200
     FM262200 23010KT P6SM FEW050 BKN250
     FM270900 21008KT 5SM BR BKN010=



000
FTUS41 KBOX 261601 AAA
TAFORH
TAF AMD
KORH 261601Z 2616/2712 23011G20KT P6SM SCT050 BKN200
     FM261900 23010G20KT P6SM BKN050 OVC200
     FM262200 23010KT P6SM FEW050 BKN250
     FM270900 21008KT 5SM BR BKN010=



000
FTUS41 KBOX 261559 AAA
TAFBDL
TAF AMD
KBDL 261559Z 2616/2718 22010G17KT P6SM BKN060 OVC250
     FM262000 21009KT P6SM SCT060 BKN250
     FM270900 19006KT 3SM BR BKN045
     FM271400 20007KT 3SM -SHRA BKN045=



000
FTUS41 KBOX 261121
TAFORH
TAF
KORH 261121Z 2612/2712 25006KT P6SM BKN200
     FM261700 24010KT P6SM BKN050
     FM270900 21008KT 5SM BR BKN010=



000
FTUS41 KBOX 261121
TAFORH
TAF
KORH 261121Z 2612/2712 25006KT P6SM BKN200
     FM261700 24010KT P6SM BKN050
     FM270900 21008KT 5SM BR BKN010=



000
FTUS41 KBOX 261121
TAFPVD
TAF
KPVD 261121Z 2612/2712 23004KT P6SM FEW200
     FM261500 22009KT P6SM SCT150
     FM261800 20013KT P6SM BKN130
     FM270000 21009KT P6SM BKN100=



000
FTUS41 KBOX 261121
TAFBOS
TAF
KBOS 261121Z 2612/2718 23006KT P6SM BKN200
     FM261500 22010KT P6SM BKN150
     FM270800 22006KT P6SM OVC100=



000
FTUS41 KBOX 261121
TAFBDL
TAF
KBDL 261121Z 2612/2718 18005KT P6SM BKN200
     FM261500 21007KT P6SM SCT060
     FM262000 21009KT P6SM BKN110
     FM270900 19006KT 3SM BR BKN045
     FM271400 20007KT 3SM -SHRA BKN045=



000
FTUS41 KBOX 261121
TAFBAF
TAF
KBAF 261121Z 2612/2712 00000KT P6SM BKN200
     FM261500 22006KT P6SM SCT060
     FM261800 23009KT P6SM BKN060
     FM270000 20005KT P6SM SCT250
     FM270900 19005KT 3SM BR BKN015=



000
FTUS41 KBOX 261121
TAFBDL
TAF
KBDL 261121Z 2612/2718 18005KT P6SM BKN200
     FM261500 21007KT P6SM SCT060
     FM262000 21009KT P6SM BKN110
     FM270900 19006KT 3SM BR BKN045
     FM271400 20007KT 3SM -SHRA BKN045=



000
FTUS41 KBOX 261121
TAFACK
TAF
KACK 261121Z 2612/2712 23007KT P6SM SKC
     FM261800 21011KT P6SM SCT140
     FM270200 21011KT 5SM BR BKN110
     FM270900 20012KT 2SM BR BKN200=



000
FTUS41 KBOX 261121
TAFBAF
TAF
KBAF 261121Z 2612/2712 00000KT P6SM BKN200
     FM261500 22006KT P6SM SCT060
     FM261800 23009KT P6SM BKN060
     FM270000 20005KT P6SM SCT250
     FM270900 19005KT 3SM BR BKN015=



000
FTUS41 KBOX 261121
TAFBOS
TAF
KBOS 261121Z 2612/2718 23006KT P6SM BKN200
     FM261500 22010KT P6SM BKN150
     FM270800 22006KT P6SM OVC100=



000
FTUS41 KBOX 261121
TAFMHT
TAF
KMHT 261121Z 2612/2712 17003KT P6SM OVC150
     FM261500 21007KT P6SM BKN060
     FM262300 19005KT P6SM SCT250
     FM270800 16003KT P6SM OVC050=



000
FTUS41 KBOX 261121
TAFPVD
TAF
KPVD 261121Z 2612/2712 23004KT P6SM FEW200
     FM261500 22009KT P6SM SCT150
     FM261800 20013KT P6SM BKN130
     FM270000 21009KT P6SM BKN100=



000
FTUS41 KBOX 261121
TAFACK
TAF
KACK 261121Z 2612/2712 23007KT P6SM SKC
     FM261800 21011KT P6SM SCT140
     FM270200 21011KT 5SM BR BKN110
     FM270900 20012KT 2SM BR BKN200=



000
FTUS41 KBOX 261121
TAFMHT
TAF
KMHT 261121Z 2612/2712 17003KT P6SM OVC150
     FM261500 21007KT P6SM BKN060
     FM262300 19005KT P6SM SCT250
     FM270800 16003KT P6SM OVC050=



000
FTUS41 KBOX 260807 AAA
TAFORH
TAF AMD
KORH 260807Z 2608/2706 24006KT P6SM SKC
     FM261500 24010KT P6SM BKN140=



000
FTUS41 KBOX 260807 AAA
TAFBAF
TAF AMD
KBAF 260807Z 2608/2706 00000KT P6SM SKC
     FM260900 00000KT 6SM BR SCT150
     FM261200 00000KT P6SM BKN150
     FM261500 22006KT P6SM BKN140=



000
FTUS41 KBOX 260807 AAA
TAFBAF
TAF AMD
KBAF 260807Z 2608/2706 00000KT P6SM SKC
     FM260900 00000KT 6SM BR SCT150
     FM261200 00000KT P6SM BKN150
     FM261500 22006KT P6SM BKN140=



000
FTUS41 KBOX 260806 AAA
TAFBDL
TAF AMD
KBDL 260806Z 2608/2712 16004KT P6SM SCT220
     FM261500 21007KT P6SM BKN150
     FM270900 19006KT 3SM BR BKN045=



000
FTUS41 KBOX 260806 AAA
TAFBDL
TAF AMD
KBDL 260806Z 2608/2712 16004KT P6SM SCT220
     FM261500 21007KT P6SM BKN150
     FM270900 19006KT 3SM BR BKN045=



000
FTUS41 KBOX 260806 AAA
TAFBOS
TAF AMD
KBOS 260806Z 2608/2712 20004KT P6SM SKC
     FM261500 21012KT P6SM BKN070
     FM270500 21008KT P6SM BKN080=



000
FTUS41 KBOX 260522
TAFORH
TAF
KORH 260522Z 2606/2706 25006KT P6SM SKC
     FM261700 24010KT P6SM BKN140=



000
FTUS41 KBOX 260522
TAFBOS
TAF
KBOS 260522Z 2606/2712 23008KT P6SM SKC
     FM261600 21012KT P6SM BKN070
     FM270500 21008KT P6SM BKN080=



000
FTUS41 KBOX 260522
TAFBDL
TAF
KBDL 260522Z 2606/2712 18004KT P6SM SKC
     FM261500 21007KT P6SM BKN150
     FM270900 19006KT 3SM BR BKN045=



000
FTUS41 KBOX 260522
TAFMHT
TAF
KMHT 260522Z 2606/2706 17004KT P6SM FEW250
     FM261500 21007KT P6SM BKN150=



000
FTUS41 KBOX 260522
TAFBAF
TAF
KBAF 260522Z 2606/2706 00000KT P6SM SKC
     FM260900 00000KT 5SM BR SCT150
     FM261200 00000KT P6SM BKN150
     FM261500 22006KT P6SM BKN140=



000
FTUS41 KBOX 260522
TAFACK
TAF
KACK 260522Z 2606/2706 23006KT P6SM SKC
     FM270300 21011KT 5SM BR BKN120=



000
FTUS41 KBOX 260522
TAFPVD
TAF
KPVD 260522Z 2606/2706 24007KT P6SM SKC
     FM261500 22009KT P6SM SCT150
     FM261800 20013KT P6SM BKN130
     FM270000 21009KT P6SM BKN110=



000
FTUS41 KBOX 260522
TAFACK
TAF
KACK 260522Z 2606/2706 23006KT P6SM SKC
     FM270300 21011KT 5SM BR BKN120=



000
FTUS41 KBOX 260522
TAFORH
TAF
KORH 260522Z 2606/2706 25006KT P6SM SKC
     FM261700 24010KT P6SM BKN140=



000
FTUS41 KBOX 260522
TAFMHT
TAF
KMHT 260522Z 2606/2706 17004KT P6SM FEW250
     FM261500 21007KT P6SM BKN150=



000
FTUS41 KBOX 260522
TAFBOS
TAF
KBOS 260522Z 2606/2712 23008KT P6SM SKC
     FM261600 21012KT P6SM BKN070
     FM270500 21008KT P6SM BKN080=



000
FTUS41 KBOX 260522
TAFBAF
TAF
KBAF 260522Z 2606/2706 00000KT P6SM SKC
     FM260900 00000KT 5SM BR SCT150
     FM261200 00000KT P6SM BKN150
     FM261500 22006KT P6SM BKN140=



000
FTUS41 KBOX 260522
TAFBDL
TAF
KBDL 260522Z 2606/2712 18004KT P6SM SKC
     FM261500 21007KT P6SM BKN150
     FM270900 19006KT 3SM BR BKN045=



000
FTUS41 KBOX 260522
TAFPVD
TAF
KPVD 260522Z 2606/2706 24007KT P6SM SKC
     FM261500 22009KT P6SM SCT150
     FM261800 20013KT P6SM BKN130
     FM270000 21009KT P6SM BKN110=



    US Dept of Commerce
    National Oceanic and Atmospheric Administration
    National Weather Service
    1325 East West Highway
    Silver Spring, MD 20910
    Page Author: NWS Internet Services Team
Disclaimer
Information Quality
Credits
Glossary
Privacy Policy
Freedom of Information Act (FOIA)
About Us
Career Opportunities